M I D A S
Marine Information and Data Acquisition System
Tripno 1018 of the Zeeleeuw from 2005-02-28 08:10:00 to 2005-02-28 16:05:00
Back to CruiseResearch ActivitiesStationsMapUnderway DataData graphs

EquipmentUnitsComment
TimeDGPSUTC
LatitudeDGPSDM.mWGS84
LongitudeDGPSDM.mWGS84
TemperatureSBE03/SBE38deg celciusITS90
ConductivitySBE21S/mITS90
SalinitySBE21 Practical Salinity Units
ChlorophylAChelsea fluorimeterg/lCalibrated in Aceton
Missing or incorrect values are displayed as -999
Sea surface data collected by the RV Zeeleeuw from 2005-02-28 08:10:00 to 2005-02-28 16:05:00
                                                                                    Next 1000 lines
Time Latitude Longitude Temperature Conductivity Salinity ChlorophylA
2005-02-28 08:10:07 51°13.595 2°56.103 11.4013 0.012455 0.071435 -0.882377
2005-02-28 08:10:13 51°13.595 2°56.103 11.3999 0.012455 0.071436 -0.882377
2005-02-28 08:10:17 51°13.595 2°56.103 11.392 0.012455 0.071437 -0.882377
2005-02-28 08:10:23 51°13.595 2°56.104 11.3841 0.012455 0.07144 -0.916087
2005-02-28 08:10:27 51°13.595 2°56.104 11.3804 0.012455 0.07144 -0.916087
2005-02-28 08:10:33 51°13.595 2°56.104 11.3874 0.012455 0.071442 -0.882377
2005-02-28 08:10:37 51°13.595 2°56.104 11.3839 0.012455 0.071443 -0.848668
2005-02-28 08:10:43 51°13.595 2°56.104 11.4646 0.012455 0.071447 -0.916087
2005-02-28 08:10:47 51°13.595 2°56.104 11.4566 0.012455 0.071448 -0.882377
2005-02-28 08:10:53 51°13.595 2°56.104 11.4539 0.012455 0.07145 -0.882377
2005-02-28 08:10:57 51°13.595 2°56.103 11.4378 0.012455 0.07145 -0.882377
2005-02-28 08:11:03 51°13.595 2°56.103 11.439 0.012455 0.071452 -0.882377
2005-02-28 08:11:07 51°13.595 2°56.103 11.4351 0.012455 0.071454 -0.882377
2005-02-28 08:11:12 51°13.594 2°56.103 11.4044 0.012455 0.071457 -0.882377
2005-02-28 08:11:18 51°13.594 2°56.103 11.2664 0.012455 0.071458 -0.882377
2005-02-28 08:11:23 51°13.594 2°56.103 11.2571 0.012351 0.070893 -0.882377
2005-02-28 08:11:27 51°13.595 2°56.102 11.3121 0.012351 0.070893 -0.882377
2005-02-28 08:11:33 51°13.595 2°56.099 10.8925 0.012455 0.071464 -0.848668
2005-02-28 08:11:37 51°13.596 2°56.097 11.2019 0.012455 0.071464 -0.916087
2005-02-28 08:11:43 51°13.597 2°56.093 11.2552 0.012351 0.070897 -0.916087
2005-02-28 08:11:48 51°13.598 2°56.089 11.2746 0.012351 0.0709 -0.882377
2005-02-28 08:11:53 51°13.6 2°56.085 11.3173 0.012455 0.071471 -0.882377
2005-02-28 08:11:58 51°13.602 2°56.079 11.2904 0.012455 0.071471 -0.882377
2005-02-28 08:12:03 51°13.604 2°56.075 11.2664 0.012455 0.071473 -0.882377
2005-02-28 08:12:08 51°13.606 2°56.068 11.2634 0.012455 0.071476 -0.882377
2005-02-28 08:12:13 51°13.609 2°56.061 11.277 0.012351 0.070909 -0.882377
2005-02-28 08:12:17 51°13.611 2°56.056 11.2621 0.012455 0.071479 -0.916087
2005-02-28 08:12:23 51°13.613 2°56.048 11.3094 0.012455 0.07148 -0.882377
2005-02-28 08:12:28 51°13.616 2°56.04 11.3109 0.012455 0.07148 -0.882377
2005-02-28 08:12:33 51°13.618 2°56.031 11.2962 0.012351 0.070915 -0.882377
2005-02-28 08:12:37 51°13.62 2°56.024 11.3031 0.012455 0.071484 -0.882377
2005-02-28 08:12:43 51°13.623 2°56.014 11.3611 0.012455 0.071488 -0.882377
2005-02-28 08:12:47 51°13.625 2°56.007 11.3276 0.012455 0.07149 -0.882377
2005-02-28 08:12:53 51°13.628 2°55.994 11.3498 0.012455 0.071494 -0.882377
2005-02-28 08:12:57 51°13.63 2°55.986 11.3586 0.012455 0.071494 -0.882377
2005-02-28 08:13:03 51°13.633 2°55.975 11.3766 0.012455 0.071497 -0.882377
2005-02-28 08:13:07 51°13.635 2°55.966 11.3578 0.012351 0.070931 -0.882377
2005-02-28 08:13:13 51°13.639 2°55.953 11.3733 0.012455 0.071501 -0.882377
2005-02-28 08:13:17 51°13.642 2°55.944 11.4453 0.012351 0.070936 -0.882377
2005-02-28 08:13:23 51°13.646 2°55.933 11.4458 0.012455 0.071506 -0.882377
2005-02-28 08:13:28 51°13.65 2°55.922 11.4403 0.012455 0.071506 -0.882377
2005-02-28 08:13:33 51°13.655 2°55.911 11.4226 0.012455 0.071509 -0.882377
2005-02-28 08:13:37 51°13.659 2°55.903 11.4318 0.012455 0.07151 -0.848668
2005-02-28 08:13:43 51°13.664 2°55.892 11.4319 0.012351 0.070945 -0.882377
2005-02-28 08:13:48 51°13.669 2°55.882 11.4297 0.012455 0.071516 -0.848668
2005-02-28 08:13:53 51°13.674 2°55.872 11.4212 0.012351 0.070948 -0.882377
2005-02-28 08:13:57 51°13.679 2°55.865 11.419 0.012351 0.070948 -0.882377
2005-02-28 08:14:03 51°13.685 2°55.854 11.4153 0.012351 0.07095 -0.882377
2005-02-28 08:14:07 51°13.69 2°55.845 11.4117 0.012351 0.070954 -0.916087
2005-02-28 08:14:13 51°13.696 2°55.834 11.4059 0.012351 0.070956 -0.882377
2005-02-28 08:14:18 51°13.702 2°55.825 11.4032 0.012351 0.070957 -0.882377
2005-02-28 08:14:23 51°13.707 2°55.816 11.3978 0.012351 0.070961 -0.882377
2005-02-28 08:14:28 51°13.712 2°55.805 11.404 0.012351 0.070961 -0.882377
2005-02-28 08:14:33 51°13.718 2°55.796 11.4006 0.012455 0.07153 -0.882377
2005-02-28 08:14:37 51°13.721 2°55.788 11.3826 0.012351 0.070963 -0.882377
2005-02-28 08:14:43 51°13.726 2°55.778 11.36 0.012351 0.070966 -0.848668
2005-02-28 08:14:49 51°13.731 2°55.767 11.3397 0.012351 0.070968 -0.882377
2005-02-28 08:14:53 51°13.734 2°55.758 11.3487 0.012351 0.07097 -0.848668
2005-02-28 08:14:57 51°13.737 2°55.75 11.3319 0.012351 0.07097 -0.848668
2005-02-28 08:15:03 51°13.741 2°55.739 11.3415 0.012455 0.071541 -0.916087
2005-02-28 08:15:08 51°13.744 2°55.729 11.3591 0.012351 0.070974 -0.882377
2005-02-28 08:15:13 51°13.747 2°55.72 11.3301 0.012351 0.070976 -0.848668
2005-02-28 08:15:17 51°13.749 2°55.713 11.4205 0.012351 0.070979 -0.882377
2005-02-28 08:15:23 51°13.751 2°55.703 11.3621 0.012351 0.07098 -0.848668
2005-02-28 08:15:29 51°13.753 2°55.695 11.4615 0.012351 0.07098 -0.848668
2005-02-28 08:15:33 51°13.754 2°55.69 11.424 0.012351 0.070983 -0.882377
2005-02-28 08:15:37 51°13.755 2°55.686 11.4777 0.012351 0.070986 -0.882377
2005-02-28 08:15:42 51°13.756 2°55.683 11.4761 0.012351 0.070987 -0.882377
2005-02-28 08:15:47 51°13.757 2°55.682 11.481 0.012351 0.070988 -0.916087
2005-02-28 08:15:53 51°13.758 2°55.681 11.5114 0.012351 0.070992 -0.882377
2005-02-28 08:15:57 51°13.759 2°55.682 11.4995 0.012351 0.070992 -0.882377
2005-02-28 08:16:03 51°13.76 2°55.685 11.3828 0.012351 0.070994 -0.882377
2005-02-28 08:16:07 51°13.761 2°55.686 11.0201 0.012351 0.070997 -0.848668
2005-02-28 08:16:13 51°13.763 2°55.688 11.2439 0.012351 0.070999 -0.882377
2005-02-28 08:16:17 51°13.764 2°55.689 11.2678 0.012351 0.070999 -0.916087
2005-02-28 08:16:22 51°13.764 2°55.689 11.2822 0.012351 0.071001 -0.882377
2005-02-28 08:16:27 51°13.765 2°55.688 11.0109 0.012351 0.071001 -0.882377
2005-02-28 08:16:33 51°13.765 2°55.686 11.3206 0.012351 0.071002 -0.916087
2005-02-28 08:16:38 51°13.764 2°55.684 11.3027 0.012351 0.071006 -0.882377
2005-02-28 08:16:43 51°13.763 2°55.681 11.3113 0.012351 0.071009 -0.848668
2005-02-28 08:16:47 51°13.762 2°55.678 11.3326 0.012351 0.071011 -0.916087
2005-02-28 08:16:53 51°13.761 2°55.674 11.333 0.012351 0.071012 -0.882377
2005-02-28 08:16:58 51°13.76 2°55.671 11.4112 0.012351 0.071012 -0.882377
2005-02-28 08:17:03 51°13.759 2°55.669 11.5163 0.012351 0.071014 -0.882377
2005-02-28 08:17:07 51°13.759 2°55.668 11.5088 0.012351 0.071014 -0.882377
2005-02-28 08:17:13 51°13.761 2°55.668 11.5513 0.012351 0.071016 -0.848668
2005-02-28 08:17:17 51°13.764 2°55.669 11.5999 0.012351 0.071018 -0.916087
2005-02-28 08:17:22 51°13.767 2°55.669 11.4768 0.012351 0.07102 -0.882377
2005-02-28 08:17:28 51°13.772 2°55.669 11.41 0.012351 0.07102 -0.882377
2005-02-28 08:17:33 51°13.776 2°55.668 11.3394 0.012351 0.071021 -0.882377
2005-02-28 08:17:37 51°13.779 2°55.667 11.4961 0.012351 0.071022 -0.882377
2005-02-28 08:17:41 51°13.783 2°55.665 11.4626 0.012351 0.071023 -0.882377
2005-02-28 08:17:47 51°13.789 2°55.663 11.3511 0.012351 0.071025 -0.882377
2005-02-28 08:17:53 51°13.796 2°55.659 11.2404 0.012351 0.071027 -0.882377
2005-02-28 08:17:57 51°13.801 2°55.656 11.2452 0.012351 0.071027 -0.882377
2005-02-28 08:18:03 51°13.809 2°55.651 11.2556 0.012351 0.071028 -0.882377
2005-02-28 08:18:07 51°13.815 2°55.648 11.321 0.012351 0.071028 -0.882377
2005-02-28 08:18:13 51°13.824 2°55.641 11.246 0.012351 0.071029 -0.882377
2005-02-28 08:18:17 51°13.832 2°55.636 11.1927 0.012351 0.071029 -0.882377
2005-02-28 08:18:22 51°13.841 2°55.63 11.1555 0.012351 0.071031 -0.882377
2005-02-28 08:18:28 51°13.852 2°55.622 11.1187 0.012351 0.071031 -0.882377
2005-02-28 08:18:32 51°13.861 2°55.615 11.1157 0.012351 0.071032 -0.848668
2005-02-28 08:18:37 51°13.871 2°55.608 11.1295 0.012351 0.071033 -0.916087
2005-02-28 08:18:43 51°13.883 2°55.599 11.0514 0.012351 0.071035 -0.848668
2005-02-28 08:18:47 51°13.892 2°55.592 10.9869 0.012351 0.071035 -0.882377
2005-02-28 08:18:53 51°13.906 2°55.581 11.0027 0.012351 0.071037 -0.882377
2005-02-28 08:18:57 51°13.917 2°55.574 11.0043 0.012351 0.071037 -0.882377
2005-02-28 08:19:03 51°13.93 2°55.564 10.9592 0.012351 0.071039 -0.848668
2005-02-28 08:19:08 51°13.942 2°55.554 10.9442 0.012351 0.07104 -0.882377
2005-02-28 08:19:13 51°13.955 2°55.545 10.9613 0.012351 0.071041 -0.882377
2005-02-28 08:19:17 51°13.966 2°55.537 10.8616 0.012351 0.071043 -0.882377
2005-02-28 08:19:23 51°13.98 2°55.527 10.8205 0.012351 0.071043 -0.848668
2005-02-28 08:19:27 51°13.991 2°55.519 11.0112 0.012351 0.071043 -0.848668
2005-02-28 08:19:33 51°14.005 2°55.509 11.0103 0.012351 0.071045 -0.848668
2005-02-28 08:19:37 51°14.016 2°55.501 11.0322 0.012351 0.071046 -0.882377
2005-02-28 08:19:43 51°14.03 2°55.491 11.094 0.012351 0.071047 -0.882377
2005-02-28 08:19:47 51°14.042 2°55.482 11.0572 0.012351 0.07105 -0.916087
2005-02-28 08:19:53 51°14.055 2°55.473 11.0801 0.012351 0.071052 -0.882377
2005-02-28 08:19:57 51°14.067 2°55.464 11.0889 0.012351 0.071052 -0.882377
2005-02-28 08:20:02 51°14.078 2°55.456 11.0909 0.012351 0.071055 -0.848668
2005-02-28 08:20:07 51°14.091 2°55.446 11.1156 0.012351 0.071057 -0.882377
2005-02-28 08:20:13 51°14.107 2°55.434 11.1226 0.012351 0.07106 -0.916087
2005-02-28 08:20:18 51°14.12 2°55.423 11.1133 0.012351 0.071062 -0.882377
2005-02-28 08:20:21 51°14.129 2°55.416 11.1921 0.012351 0.071063 -0.916087
2005-02-28 08:20:27 51°14.143 2°55.404 11.2169 0.012351 0.071063 -0.916087
2005-02-28 08:20:33 51°14.158 2°55.39 11.1682 0.012351 0.071066 -0.882377
2005-02-28 08:20:37 51°14.169 2°55.379 11.1569 0.012351 0.071068 -0.916087
2005-02-28 08:20:42 51°14.181 2°55.367 11.2091 0.012351 0.07107 -0.916087
2005-02-28 08:20:47 51°14.193 2°55.354 11.2561 0.012351 0.071073 -0.848668
2005-02-28 08:20:53 51°14.208 2°55.338 11.2759 0.012351 0.071075 -0.916087
2005-02-28 08:20:57 51°14.218 2°55.324 11.2428 0.012351 0.071075 -0.916087
2005-02-28 08:21:02 51°14.228 2°55.311 11.3221 0.012351 0.071077 -0.848668
2005-02-28 08:21:07 51°14.24 2°55.293 11.2816 0.012351 0.071079 -0.882377
2005-02-28 08:21:13 51°14.252 2°55.275 11.1825 0.012351 0.071082 -0.882377
2005-02-28 08:21:17 51°14.261 2°55.259 10.9979 0.012351 0.071084 -0.882377
2005-02-28 08:21:23 51°14.272 2°55.239 11.0218 0.012351 0.071085 -0.882377
2005-02-28 08:21:27 51°14.281 2°55.223 11.2457 0.012351 0.071085 -0.882377
2005-02-28 08:21:32 51°14.291 2°55.205 11.1774 0.012351 0.071087 -0.882377
2005-02-28 08:21:37 51°14.3 2°55.188 11.0346 0.012351 0.071089 -0.882377
2005-02-28 08:21:43 51°14.311 2°55.165 10.9914 0.012351 0.07109 -0.882377
2005-02-28 08:21:47 51°14.32 2°55.148 11.0492 0.012351 0.07109 -0.882377
2005-02-28 08:21:53 51°14.331 2°55.127 11.0312 0.012351 0.071091 -0.882377
2005-02-28 08:21:57 51°14.34 2°55.109 10.9641 0.012351 0.071091 -0.882377
2005-02-28 08:22:02 51°14.35 2°55.09 11.0745 0.012351 0.071092 -0.882377
2005-02-28 08:22:07 51°14.359 2°55.072 10.998 0.012351 0.071094 -0.882377
2005-02-28 08:22:12 51°14.371 2°55.05 11.1287 0.012351 0.071097 -0.848668
2005-02-28 08:22:17 51°14.381 2°55.029 11.188 0.012351 0.071097 -0.916087
2005-02-28 08:22:22 51°14.39 2°55.01 11.2967 0.012351 0.071101 -0.882377
2005-02-28 08:22:27 51°14.399 2°54.985 11.3572 0.012351 0.071101 -0.882377
2005-02-28 08:22:33 51°14.408 2°54.96 11.3281 0.012351 0.071103 -0.848668
2005-02-28 08:22:37 51°14.414 2°54.938 11.282 0.012351 0.071106 -0.916087
2005-02-28 08:22:43 51°14.421 2°54.909 11.1455 0.012351 0.071109 -0.882377
2005-02-28 08:22:47 51°14.425 2°54.888 11.1084 0.012351 0.071112 -0.916087
2005-02-28 08:22:53 51°14.431 2°54.854 10.9413 0.012351 0.071114 -0.882377
2005-02-28 08:22:57 51°14.434 2°54.833 11.0967 0.012351 0.071114 -0.882377
2005-02-28 08:23:03 51°14.438 2°54.803 11.2003 0.012351 0.071117 -0.882377
2005-02-28 08:23:07 51°14.44 2°54.778 11.1545 0.012351 0.071118 -0.882377
2005-02-28 08:23:12 51°14.442 2°54.751 8.9467 0.012351 0.071121 -0.882377
2005-02-28 08:23:17 51°14.444 2°54.726 5.6663 0.012351 0.071122 -0.882377
2005-02-28 08:23:23 51°14.446 2°54.691 4.7449 0.012351 0.071172 -0.882377
2005-02-28 08:23:27 51°14.448 2°54.665 4.2967 0.012351 0.071172 -0.882377
2005-02-28 08:23:33 51°14.45 2°54.635 4.0807 0.012351 0.071197 -0.848668
2005-02-28 08:23:37 51°14.451 2°54.609 3.8461 3.03195 23.614969 1.949212
2005-02-28 08:23:43 51°14.453 2°54.577 3.7787 3.14557 26.065873 1.848084
2005-02-28 08:23:48 51°14.453 2°54.548 3.6818 3.174351 28.980226 2.825657
2005-02-28 08:23:53 51°14.454 2°54.52 3.67 2.575877 24.463559 4.039195
2005-02-28 08:23:57 51°14.454 2°54.494 3.607 2.575877 24.463559 4.039195
2005-02-28 08:24:03 51°14.454 2°54.462 3.5534 2.580094 25.429287 4.106614
2005-02-28 08:24:07 51°14.453 2°54.439 3.523 2.612603 26.436048 3.668392
2005-02-28 08:24:13 51°14.449 2°54.404 3.4842 2.642795 27.116144 3.129042
2005-02-28 08:24:17 51°14.446 2°54.378 3.4809 2.637643 27.299826 2.825657
2005-02-28 08:24:22 51°14.442 2°54.35 3.4478 2.635331 27.432133 2.522272
2005-02-28 08:24:27 51°14.438 2°54.321 3.4055 2.635331 27.432133 2.522272
2005-02-28 08:24:33 51°14.433 2°54.29 3.4302 2.60588 27.206679 2.353725
2005-02-28 08:24:37 51°14.428 2°54.265 3.4109 2.671415 28.051073 2.117759
2005-02-28 08:24:43 51°14.421 2°54.234 3.42 2.666156 28.049725 1.982922
2005-02-28 08:24:47 51°14.415 2°54.213 3.3972 2.662685 28.08062 1.915503
2005-02-28 08:24:53 51°14.405 2°54.181 3.3813 2.664053 28.136408 1.881794
2005-02-28 08:24:57 51°14.397 2°54.158 3.3706 2.664053 28.136408 1.881794
2005-02-28 08:25:03 51°14.387 2°54.129 3.3506 2.65953 28.120748 1.814375
2005-02-28 08:25:07 51°14.379 2°54.109 3.3657 2.650378 28.042723 1.746956
2005-02-28 08:25:13 51°14.367 2°54.078 3.3491 2.665526 28.231445 1.746956
2005-02-28 08:25:17 51°14.358 2°54.055 3.3599 2.668998 28.285851 1.780665
2005-02-28 08:25:22 51°14.348 2°54.029 3.4011 2.670892 28.328126 1.679537
2005-02-28 08:25:27 51°14.338 2°54.003 3.3947 2.670892 28.328126 1.679537
2005-02-28 08:25:33 51°14.326 2°53.975 3.4448 2.672049 28.352522 1.713247
2005-02-28 08:25:38 51°14.317 2°53.948 3.3792 2.67005 28.352543 1.713247
2005-02-28 08:25:43 51°14.306 2°53.922 3.4296 2.662161 28.27671 1.645828
2005-02-28 08:25:47 51°14.299 2°53.901 3.4418 2.6589 28.241716 1.645828
2005-02-28 08:25:53 51°14.286 2°53.87 3.495 2.655849 28.211507 1.578409
2005-02-28 08:25:58 51°14.276 2°53.843 3.5674 2.655849 28.211507 1.578409
2005-02-28 08:26:02 51°14.268 2°53.819 3.4691 2.655218 28.187852 1.645828
2005-02-28 08:26:07 51°14.259 2°53.795 3.4864 2.642279 28.021414 1.645828
2005-02-28 08:26:13 51°14.247 2°53.763 3.4778 2.662266 28.259292 1.679537
2005-02-28 08:26:17 51°14.239 2°53.738 3.4692 2.667 28.306796 1.780665
2005-02-28 08:26:22 51°14.23 2°53.71 3.4706 2.667841 28.302629 1.780665
2005-02-28 08:26:27 51°14.222 2°53.685 3.5043 2.667841 28.302629 1.780665
2005-02-28 08:26:33 51°14.212 2°53.651 3.462 2.666999 28.265649 1.746956
2005-02-28 08:26:37 51°14.204 2°53.626 3.4862 2.674153 28.342071 1.949212
2005-02-28 08:26:42 51°14.196 2°53.597 3.4817 2.64028 27.949738 1.949212
2005-02-28 08:26:47 51°14.19 2°53.571 3.4709 2.660477 28.188846 1.982922
2005-02-28 08:26:52 51°14.181 2°53.54 3.4514 2.680465 28.429714 2.016631
2005-02-28 08:26:57 51°14.173 2°53.511 3.4265 2.680465 28.429714 2.016631
2005-02-28 08:27:03 51°14.164 2°53.48 3.416 2.656795 28.15057 2.050341
2005-02-28 08:27:07 51°14.157 2°53.457 3.4196 2.676151 28.373937 2.08405
2005-02-28 08:27:13 51°14.146 2°53.424 3.4117 2.682464 28.4507 2.050341
2005-02-28 08:27:18 51°14.136 2°53.397 3.401 2.682674 28.457839 2.08405
2005-02-28 08:27:22 51°14.127 2°53.376 3.3799 2.684357 28.489993 2.050341
2005-02-28 08:27:27 51°14.116 2°53.349 3.3538 2.684357 28.489993 2.050341
2005-02-28 08:27:33 51°14.103 2°53.318 3.339 2.677519 28.429659 2.050341
2005-02-28 08:27:37 51°14.093 2°53.295 3.3213 2.684673 28.529703 2.050341
2005-02-28 08:27:43 51°14.081 2°53.265 3.2913 2.68299 28.518643 1.982922
2005-02-28 08:27:47 51°14.072 2°53.243 3.2888 2.679308 28.481848 1.982922
2005-02-28 08:27:52 51°14.061 2°53.214 3.2704 2.674574 28.440563 2.016631
2005-02-28 08:27:57 51°14.051 2°53.189 3.2909 2.674574 28.440563 2.016631
2005-02-28 08:28:03 51°14.04 2°53.156 3.2978 2.679309 28.517925 1.915503
2005-02-28 08:28:07 51°14.031 2°53.13 3.3068 2.671945 28.44972 1.848084
2005-02-28 08:28:13 51°14.02 2°53.1 3.336 2.673418 28.47953 1.814375
2005-02-28 08:28:17 51°14.011 2°53.075 3.3558 2.668263 28.441078 1.713247
2005-02-28 08:28:23 51°14 2°53.044 3.3609 2.66374 28.40999 1.679537
2005-02-28 08:28:27 51°13.991 2°53.018 3.3875 2.66374 28.40999 1.679537
2005-02-28 08:28:33 51°13.98 2°52.989 3.3931 2.663109 28.408076 1.679537
2005-02-28 08:28:37 51°13.971 2°52.963 3.3987 2.662793 28.402804 1.679537
2005-02-28 08:28:43 51°13.959 2°52.933 3.3988 2.667948 28.458579 1.645828
2005-02-28 08:28:48 51°13.948 2°52.905 3.3726 2.66921 28.458463 1.713247
2005-02-28 08:28:53 51°13.938 2°52.877 3.3682 2.674154 28.500733 1.780665
2005-02-28 08:28:57 51°13.929 2°52.853 3.3669 2.674154 28.500733 1.780665
2005-02-28 08:29:03 51°13.918 2°52.821 3.3609 2.665528 28.383165 1.780665
2005-02-28 08:29:07 51°13.91 2°52.798 3.3922 2.677836 28.513241 1.848084
2005-02-28 08:29:13 51°13.898 2°52.764 3.4065 2.680781 28.540676 1.915503
2005-02-28 08:29:17 51°13.89 2°52.737 3.4032 2.66942 28.407622 1.949212
2005-02-28 08:29:21 51°13.883 2°52.714 3.425 2.666895 28.383538 1.848084
2005-02-28 08:29:27 51°13.872 2°52.683 3.4264 2.666895 28.383538 1.848084
2005-02-28 08:29:33 51°13.86 2°52.648 3.4204 2.643752 28.122806 1.814375
2005-02-28 08:29:37 51°13.852 2°52.622 3.4257 2.649643 28.194062 1.814375
2005-02-28 08:29:43 51°13.84 2°52.591 3.42 2.643121 28.111548 1.848084
2005-02-28 08:29:47 51°13.83 2°52.566 3.4188 2.663003 28.330946 1.814375
2005-02-28 08:29:53 51°13.819 2°52.535 3.406 2.678046 28.498433 1.848084
2005-02-28 08:29:57 51°13.81 2°52.51 3.4094 2.678046 28.498433 1.848084
2005-02-28 08:30:01 51°13.801 2°52.488 3.3935 2.619348 27.806073 1.881794
2005-02-28 08:30:07 51°13.788 2°52.454 3.3692 2.60378 27.622938 1.915503
2005-02-28 08:30:13 51°13.776 2°52.424 3.3688 2.595681 27.526242 1.881794
2005-02-28 08:30:17 51°13.768 2°52.398 3.3188 2.677836 28.488126 1.949212
2005-02-28 08:30:23 51°13.757 2°52.367 3.3263 2.681412 28.530782 1.982922
2005-02-28 08:30:27 51°13.748 2°52.341 3.3184 2.681412 28.530782 1.982922
2005-02-28 08:30:32 51°13.738 2°52.312 3.3093 2.68015 28.524639 2.016631
2005-02-28 08:30:37 51°13.728 2°52.283 3.301 2.675837 28.482763 2.016631
2005-02-28 08:30:43 51°13.718 2°52.251 3.2846 2.679098 28.535893 2.050341
2005-02-28 08:30:47 51°13.709 2°52.225 3.2873 2.673944 28.489622 2.050341
2005-02-28 08:30:53 51°13.698 2°52.194 3.278 2.672997 28.498955 1.982922
2005-02-28 08:30:57 51°13.689 2°52.168 3.2837 2.672997 28.498955 1.982922
2005-02-28 08:31:02 51°13.681 2°52.144 3.2894 2.672997 28.508395 1.915503
2005-02-28 08:31:07 51°13.67 2°52.114 3.2747 2.659006 28.356022 1.848084
2005-02-28 08:31:13 51°13.658 2°52.079 3.2896 2.671314 28.512258 1.848084
2005-02-28 08:31:17 51°13.648 2°52.055 3.2639 2.672261 28.532836 1.814375
2005-02-28 08:31:21 51°13.64 2°52.032 3.2775 2.670683 28.519818 1.780665
2005-02-28 08:31:28 51°13.627 2°51.998 3.2641 2.670683 28.519818 1.780665
2005-02-28 08:31:33 51°13.616 2°51.968 3.2649 2.66111 28.412875 1.780665
2005-02-28 08:31:37 51°13.606 2°51.942 3.2711 2.669737 28.516578 1.881794
2005-02-28 08:31:43 51°13.595 2°51.911 3.2737 2.666581 28.478707 1.814375
2005-02-28 08:31:47 51°13.587 2°51.888 3.2612 2.666265 28.478149 1.848084
2005-02-28 08:31:53 51°13.575 2°51.854 3.2655 2.666581 28.487372 1.814375
2005-02-28 08:31:57 51°13.566 2°51.828 3.2617 2.666581 28.487372 1.814375
2005-02-28 08:32:03 51°13.555 2°51.797 3.2742 2.665108 28.473214 1.814375
2005-02-28 08:32:07 51°13.548 2°51.773 3.2569 2.669526 28.529094 1.814375
2005-02-28 08:32:13 51°13.537 2°51.738 3.2676 2.667317 28.503122 1.848084
2005-02-28 08:32:17 51°13.528 2°51.713 3.2623 2.660479 28.424324 1.848084
2005-02-28 08:32:23 51°13.516 2°51.682 3.2637 2.663951 28.467489 1.746956
2005-02-28 08:32:27 51°13.509 2°51.658 3.2657 2.663951 28.467489 1.746956
2005-02-28 08:32:32 51°13.497 2°51.627 3.2672 2.668685 28.523145 1.848084
2005-02-28 08:32:37 51°13.487 2°51.599 3.2813 2.670263 28.540121 1.814375
2005-02-28 08:32:43 51°13.476 2°51.568 3.2774 2.657218 28.392286 1.848084
2005-02-28 08:32:47 51°13.467 2°51.545 3.2803 2.665739 28.490878 1.881794
2005-02-28 08:32:53 51°13.454 2°51.511 3.2803 2.669947 28.543518 1.915503
2005-02-28 08:32:57 51°13.446 2°51.485 3.2916 2.669947 28.543518 1.915503
2005-02-28 08:33:03 51°13.434 2°51.453 3.2953 2.66858 28.526645 1.915503
2005-02-28 08:33:07 51°13.426 2°51.429 3.2981 2.669526 28.5362 1.915503
2005-02-28 08:33:13 51°13.414 2°51.395 3.3055 2.668895 28.525619 1.949212
2005-02-28 08:33:17 51°13.405 2°51.369 3.3103 2.669316 28.52741 1.982922
2005-02-28 08:33:23 51°13.394 2°51.337 3.323 2.647645 28.271198 2.050341
2005-02-28 08:33:27 51°13.386 2°51.314 3.3257 2.647645 28.271198 2.050341
2005-02-28 08:33:33 51°13.374 2°51.279 3.3299 2.67142 28.54583 2.050341
2005-02-28 08:33:37 51°13.365 2°51.253 3.3264 2.674786 28.581456 2.185178
2005-02-28 08:33:43 51°13.354 2°51.221 3.3293 2.670683 28.528493 2.218888
2005-02-28 08:33:47 51°13.345 2°51.198 3.3337 2.665844 28.46612 2.218888
2005-02-28 08:33:53 51°13.333 2°51.163 3.3375 2.669 28.496893 2.286306
2005-02-28 08:33:57 51°13.324 2°51.138 3.3436 2.669 28.496893 2.286306
2005-02-28 08:34:03 51°13.313 2°51.105 3.349 2.670894 28.513619 2.252597
2005-02-28 08:34:07 51°13.304 2°51.082 3.3475 2.662372 28.408851 2.387435
2005-02-28 08:34:13 51°13.293 2°51.047 3.3474 2.662057 28.402792 2.353725
2005-02-28 08:34:17 51°13.283 2°51.021 3.3491 2.671419 28.51113 2.320016
2005-02-28 08:34:23 51°13.272 2°50.988 3.3427 2.674996 28.550765 2.353725
2005-02-28 08:34:27 51°13.264 2°50.965 3.3409 2.674996 28.550765 2.353725
2005-02-28 08:34:33 51°13.252 2°50.929 3.3333 2.668263 28.467785 2.387435
2005-02-28 08:34:37 51°13.244 2°50.903 3.3316 2.673313 28.523122 2.454853
2005-02-28 08:34:43 51°13.232 2°50.871 3.3271 2.675101 28.540963 2.488563
2005-02-28 08:34:47 51°13.224 2°50.847 3.3115 2.67447 28.532766 2.522272
2005-02-28 08:34:52 51°13.213 2°50.815 3.3164 2.675417 28.544668 2.589691
2005-02-28 08:34:57 51°13.203 2°50.786 3.318 2.675417 28.544668 2.589691
2005-02-28 08:35:01 51°13.195 2°50.762 3.3026 2.67163 28.50179 2.555982
2005-02-28 08:35:08 51°13.182 2°50.727 3.3115 2.659637 28.365776 2.589691
2005-02-28 08:35:12 51°13.172 2°50.698 3.2993 2.665528 28.438826 2.555982
2005-02-28 08:35:17 51°13.162 2°50.669 3.2988 2.666686 28.459483 2.454853
2005-02-28 08:35:23 51°13.151 2°50.636 3.2936 2.669736 28.500028 2.454853
2005-02-28 08:35:28 51°13.142 2°50.61 3.2917 2.669736 28.500028 2.454853
2005-02-28 08:35:32 51°13.132 2°50.581 3.2964 2.66879 28.493634 2.387435
2005-02-28 08:35:37 51°13.122 2°50.552 3.2906 2.670578 28.517793 2.320016
2005-02-28 08:35:43 51°13.111 2°50.519 3.297 2.662162 28.422087 2.387435
2005-02-28 08:35:47 51°13.103 2°50.496 3.2947 2.668579 28.500615 2.320016
2005-02-28 08:35:53 51°13.091 2°50.461 3.2866 2.663319 28.444328 2.185178
2005-02-28 08:35:57 51°13.082 2°50.435 3.2931 2.663319 28.444328 2.185178
2005-02-28 08:36:01 51°13.074 2°50.412 3.2833 2.665949 28.479166 2.151469
2005-02-28 08:36:08 51°13.062 2°50.377 3.2808 2.664266 28.460174 2.151469
2005-02-28 08:36:13 51°13.051 2°50.345 3.2776 2.663846 28.456016 2.08405
2005-02-28 08:36:17 51°13.042 2°50.319 3.2844 2.667738 28.504914 2.050341
2005-02-28 08:36:23 51°13.031 2°50.287 3.2871 2.66353 28.454669 1.949212
2005-02-28 08:36:27 51°13.023 2°50.264 3.2792 2.66353 28.454669 1.949212
2005-02-28 08:36:33 51°13.011 2°50.229 3.2874 2.661636 28.432417 1.949212
2005-02-28 08:36:37 51°13.002 2°50.203 3.2794 2.66111 28.430955 1.881794
2005-02-28 08:36:42 51°12.993 2°50.177 3.2832 2.653116 28.340151 1.848084
2005-02-28 08:36:47 51°12.984 2°50.148 3.2727 2.660059 28.424097 1.881794
2005-02-28 08:36:53 51°12.972 2°50.113 3.2596 2.660059 28.422524 1.780665
2005-02-28 08:36:57 51°12.963 2°50.087 3.2566 2.660059 28.422524 1.780665
2005-02-28 08:37:03 51°12.953 2°50.054 3.2495 2.660795 28.43354 1.814375
2005-02-28 08:37:07 51°12.945 2°50.031 3.2397 2.660059 28.424097 1.746956
2005-02-28 08:37:13 51°12.933 2°49.996 3.2361 2.660795 28.432753 1.746956
2005-02-28 08:37:17 51°12.924 2°49.97 3.2227 2.661952 28.447143 1.780665
2005-02-28 08:37:21 51°12.917 2°49.947 3.2197 2.661742 28.452543 1.713247
2005-02-28 08:37:28 51°12.904 2°49.912 3.229 2.661742 28.452543 1.713247
2005-02-28 08:37:33 51°12.893 2°49.881 3.2045 2.666581 28.515767 1.713247
2005-02-28 08:37:37 51°12.884 2°49.855 3.1966 2.658796 28.430503 1.713247
2005-02-28 08:37:43 51°12.873 2°49.823 3.1927 2.658376 28.435792 1.645828
2005-02-28 08:37:47 51°12.864 2°49.801 3.1956 2.656482 28.4206 1.746956
2005-02-28 08:37:53 51°12.852 2°49.767 3.1799 2.658481 28.451219 1.679537
2005-02-28 08:37:57 51°12.843 2°49.741 3.1945 2.658481 28.451219 1.679537
2005-02-28 08:38:02 51°12.834 2°49.715 3.1767 2.660375 28.477458 1.679537
2005-02-28 08:38:08 51°12.823 2°49.683 3.182 2.659638 28.479052 1.679537
2005-02-28 08:38:13 51°12.811 2°49.652 3.1679 2.653958 28.420034 1.679537
2005-02-28 08:38:17 51°12.803 2°49.626 3.1707 2.656483 28.4553 1.645828
2005-02-28 08:38:21 51°12.795 2°49.604 3.1617 2.653748 28.427809 1.612118
2005-02-28 08:38:27 51°12.784 2°49.572 3.1619 2.653748 28.427809 1.612118
2005-02-28 08:38:33 51°12.771 2°49.538 3.1693 2.651959 28.410681 1.612118
2005-02-28 08:38:37 51°12.762 2°49.512 3.1564 2.653432 28.432771 1.612118
2005-02-28 08:38:43 51°12.751 2°49.481 3.1575 2.64975 28.392534 1.578409
2005-02-28 08:38:48 51°12.741 2°49.455 3.1404 2.6467 28.361309 1.612118
2005-02-28 08:38:52 51°12.731 2°49.427 3.1455 2.656693 28.483072 1.612118
2005-02-28 08:38:57 51°12.721 2°49.399 3.1422 2.656693 28.483072 1.612118
2005-02-28 08:39:03 51°12.71 2°49.367 3.1505 2.653432 28.447777 1.5447
2005-02-28 08:39:07 51°12.702 2°49.344 3.1378 2.653853 28.455111 1.612118
2005-02-28 08:39:12 51°12.691 2°49.312 3.1435 2.658376 28.513217 1.578409
2005-02-28 08:39:17 51°12.681 2°49.283 3.1366 2.655852 28.486598 1.578409
2005-02-28 08:39:23 51°12.67 2°49.251 3.1427 2.652696 28.456485 1.578409
2005-02-28 08:39:28 51°12.661 2°49.225 3.1371 2.652696 28.456485 1.578409
2005-02-28 08:39:33 51°12.65 2°49.195 3.1381 2.648804 28.413724 1.578409
2005-02-28 08:39:37 51°12.64 2°49.169 3.1435 2.662584 28.575573 1.477281
2005-02-28 08:39:43 51°12.629 2°49.138 3.1389 2.660691 28.5556 1.5447
2005-02-28 08:39:48 51°12.619 2°49.112 3.1367 2.660901 28.56126 1.51099
2005-02-28 08:39:52 51°12.608 2°49.085 3.1329 2.656904 28.514858 1.5447
2005-02-28 08:39:57 51°12.597 2°49.057 3.1281 2.656904 28.514858 1.5447
2005-02-28 08:40:03 51°12.586 2°49.026 3.1312 2.66027 28.555396 1.5447
2005-02-28 08:40:07 51°12.577 2°49.003 3.1308 2.663637 28.595148 1.51099
2005-02-28 08:40:13 51°12.565 2°48.969 3.1324 2.66795 28.645294 1.5447
2005-02-28 08:40:17 51°12.555 2°48.944 3.1408 2.664899 28.610056 1.578409
2005-02-28 08:40:21 51°12.547 2°48.921 3.1356 2.67079 28.682037 1.51099
2005-02-28 08:40:27 51°12.535 2°48.89 3.1403 2.67079 28.682037 1.51099
2005-02-28 08:40:33 51°12.522 2°48.856 3.1418 2.668265 28.655396 1.51099
2005-02-28 08:40:37 51°12.513 2°48.831 3.148 2.671211 28.692594 1.51099
2005-02-28 08:40:42 51°12.502 2°48.803 3.1521 2.674472 28.729538 1.612118
2005-02-28 08:40:47 51°12.492 2°48.777 3.1567 2.672263 28.702631 1.578409
2005-02-28 08:40:53 51°12.479 2°48.744 3.1737 2.672158 28.698993 1.5447
2005-02-28 08:40:57 51°12.47 2°48.718 3.1667 2.672158 28.698993 1.5447
2005-02-28 08:41:01 51°12.461 2°48.696 3.1765 2.672578 28.703167 1.51099
2005-02-28 08:41:08 51°12.449 2°48.661 3.1754 2.669738 28.668013 1.5447
2005-02-28 08:41:12 51°12.438 2°48.633 3.1786 2.665846 28.620443 1.5447
2005-02-28 08:41:17 51°12.428 2°48.604 3.184 2.67626 28.738686 1.51099
2005-02-28 08:41:23 51°12.416 2°48.573 3.1873 2.673946 28.704161 1.578409
2005-02-28 08:41:27 51°12.407 2°48.55 3.1855 2.673946 28.704161 1.578409
2005-02-28 08:41:32 51°12.395 2°48.519 3.1865 2.674998 28.711798 1.578409
2005-02-28 08:41:37 51°12.384 2°48.491 3.1858 2.671105 28.661854 1.5447
2005-02-28 08:41:43 51°12.373 2°48.459 3.1866 2.678049 28.740641 1.578409
2005-02-28 08:41:48 51°12.363 2°48.434 3.1889 2.676996 28.725026 1.578409
2005-02-28 08:41:53 51°12.351 2°48.403 3.1897 2.675839 28.70658 1.612118
2005-02-28 08:41:57 51°12.342 2°48.38 3.1881 2.675839 28.70658 1.612118
2005-02-28 08:42:03 51°12.329 2°48.346 3.1855 2.677102 28.719886 1.5447
2005-02-28 08:42:07 51°12.321 2°48.324 3.1892 2.681415 28.770005 1.612118
2005-02-28 08:42:12 51°12.309 2°48.293 3.195 2.673104 28.670316 1.578409
2005-02-28 08:42:17 51°12.299 2°48.264 3.1878 2.680994 28.763439 1.612118
2005-02-28 08:42:23 51°12.287 2°48.233 3.1935 2.681099 28.763882 1.578409
2005-02-28 08:42:28 51°12.278 2°48.207 3.1896 2.681099 28.763882 1.578409
2005-02-28 08:42:32 51°12.267 2°48.179 3.1893 2.672368 28.660035 1.612118
2005-02-28 08:42:37 51°12.258 2°48.149 3.192 2.666476 28.592122 1.578409
2005-02-28 08:42:42 51°12.25 2°48.122 3.1903 2.666897 28.595498 1.578409
2005-02-28 08:42:47 51°12.242 2°48.092 3.195 2.679942 28.748625 1.5447
2005-02-28 08:42:53 51°12.233 2°48.056 3.188 2.673735 28.676172 1.578409
2005-02-28 08:42:57 51°12.226 2°48.028 3.1892 2.673735 28.676172 1.578409
2005-02-28 08:43:03 51°12.218 2°47.995 3.1899 2.675103 28.691513 1.578409
2005-02-28 08:43:08 51°12.211 2°47.967 3.1912 2.680047 28.749867 1.578409
2005-02-28 08:43:13 51°12.203 2°47.934 3.1889 2.673525 28.672893 1.612118
2005-02-28 08:43:17 51°12.197 2°47.906 3.1893 2.677312 28.716787 1.578409
2005-02-28 08:43:21 51°12.191 2°47.881 3.1918 2.680468 28.754036 1.5447
2005-02-28 08:43:28 51°12.182 2°47.844 3.1829 2.680468 28.754036 1.5447
2005-02-28 08:43:33 51°12.174 2°47.811 3.1879 2.677417 28.718028 1.5447
2005-02-28 08:43:37 51°12.167 2°47.783 3.1871 2.680994 28.761842 1.578409
2005-02-28 08:43:43 51°12.159 2°47.749 3.1873 2.682256 28.776744 1.578409
2005-02-28 08:43:48 51°12.152 2°47.721 3.1825 2.68152 28.76885 1.578409
2005-02-28 08:43:52 51°12.144 2°47.691 3.1826 2.680573 28.757673 1.578409
2005-02-28 08:43:57 51°12.137 2°47.66 3.1884 2.680573 28.757673 1.578409
2005-02-28 08:44:01 51°12.131 2°47.636 3.1885 2.683729 28.79733 1.578409
2005-02-28 08:44:08 51°12.121 2°47.598 3.1862 2.683308 28.792362 1.5447
2005-02-28 08:44:13 51°12.114 2°47.564 3.1898 2.677943 28.730618 1.5447
2005-02-28 08:44:17 51°12.107 2°47.537 3.1908 2.681941 28.777813 1.578409
2005-02-28 08:44:23 51°12.098 2°47.503 3.2006 2.68394 28.803814 1.5447
2005-02-28 08:44:27 51°12.092 2°47.478 3.2034 2.68394 28.803814 1.5447
2005-02-28 08:44:33 51°12.083 2°47.442 3.205 2.680047 28.757054 1.51099
2005-02-28 08:44:37 51°12.076 2°47.414 3.2093 2.682046 28.777457 1.578409
2005-02-28 08:44:42 51°12.069 2°47.386 3.2099 2.664478 28.569339 1.578409
2005-02-28 08:44:47 51°12.062 2°47.355 3.2097 2.678048 28.727073 1.5447
2005-02-28 08:44:53 51°12.053 2°47.318 3.2142 2.684992 28.809036 1.578409
2005-02-28 08:44:57 51°12.046 2°47.29 3.2122 2.684992 28.809036 1.578409
2005-02-28 08:45:02 51°12.038 2°47.26 3.2155 2.685202 28.806721 1.578409
2005-02-28 08:45:07 51°12.032 2°47.231 3.2088 2.688989 28.848231 1.578409
2005-02-28 08:45:13 51°12.023 2°47.195 3.2097 2.681625 28.758911 1.612118
2005-02-28 08:45:17 51°12.016 2°47.167 3.1995 2.684045 28.785069 1.612118
2005-02-28 08:45:21 51°12.01 2°47.142 3.2005 2.680257 28.738785 1.645828
2005-02-28 08:45:28 51°12 2°47.105 3.1989 2.680257 28.738785 1.645828
2005-02-28 08:45:33 51°11.993 2°47.071 3.1865 2.685518 28.800052 1.578409
2005-02-28 08:45:37 51°11.985 2°47.043 3.1829 2.688568 28.835258 1.578409
2005-02-28 08:45:42 51°11.979 2°47.015 3.1838 2.685518 28.800852 1.578409
2005-02-28 08:45:47 51°11.971 2°46.986 3.1823 2.684886 28.7958 1.578409
2005-02-28 08:45:53 51°11.962 2°46.948 3.1764 2.6892 28.851515 1.612118
2005-02-28 08:45:57 51°11.955 2°46.921 3.1824 2.6892 28.851515 1.612118
2005-02-28 08:46:01 51°11.949 2°46.896 3.1662 2.685518 28.809647 1.578409
2005-02-28 08:46:07 51°11.941 2°46.862 3.1681 2.683729 28.793332 1.5447
2005-02-28 08:46:12 51°11.932 2°46.828 3.1681 2.679732 28.751731 1.578409
2005-02-28 08:46:17 51°11.924 2°46.798 3.1646 2.677312 28.725561 1.578409
2005-02-28 08:46:23 51°11.916 2°46.764 3.163 2.686044 28.830264 1.578409
2005-02-28 08:46:28 51°11.909 2°46.735 3.1629 2.686044 28.830264 1.578409
2005-02-28 08:46:32 51°11.901 2°46.706 3.166 2.672578 28.673664 1.5447
2005-02-28 08:46:37 51°11.893 2°46.675 3.1735 2.683519 28.806846 1.5447
2005-02-28 08:46:43 51°11.885 2°46.641 3.1673 2.681731 28.791322 1.5447
2005-02-28 08:46:47 51°11.879 2°46.616 3.1696 2.68394 28.819024 1.5447
2005-02-28 08:46:53 51°11.87 2°46.578 3.1783 2.682572 28.805267 1.578409
2005-02-28 08:46:57 51°11.862 2°46.551 3.1704 2.682572 28.805267 1.578409
2005-02-28 08:47:02 51°11.856 2°46.523 3.1766 2.682888 28.809797 1.51099
2005-02-28 08:47:08 51°11.847 2°46.488 3.1792 2.678469 28.757594 1.51099
2005-02-28 08:47:13 51°11.839 2°46.455 3.1732 2.675945 28.725374 1.51099
2005-02-28 08:47:17 51°11.832 2°46.427 3.1747 2.674367 28.705142 1.5447
2005-02-28 08:47:23 51°11.824 2°46.393 3.1619 2.687727 28.86137 1.578409
2005-02-28 08:47:27 51°11.818 2°46.368 3.149 2.687727 28.86137 1.578409
2005-02-28 08:47:33 51°11.809 2°46.33 3.1471 2.688043 28.865099 1.5447
2005-02-28 08:47:37 51°11.802 2°46.302 3.1407 2.684466 28.821234 1.51099
2005-02-28 08:47:42 51°11.795 2°46.274 3.1273 2.684781 28.823361 1.578409
2005-02-28 08:47:48 51°11.787 2°46.239 3.1227 2.684676 28.82372 1.578409
2005-02-28 08:47:53 51°11.779 2°46.206 3.1164 2.683414 28.812809 1.477281
2005-02-28 08:47:57 51°11.771 2°46.178 3.1079 2.683414 28.812809 1.477281
2005-02-28 08:48:03 51°11.763 2°46.143 3.1054 2.688253 28.877215 1.5447
2005-02-28 08:48:08 51°11.756 2°46.116 3.1076 2.685518 28.8513 1.51099
2005-02-28 08:48:13 51°11.748 2°46.082 3.1138 2.676997 28.757781 1.578409
2005-02-28 08:48:18 51°11.739 2°46.051 3.1244 2.680574 28.809677 1.51099
2005-02-28 08:48:22 51°11.733 2°46.026 3.1337 2.679522 28.804449 1.51099
2005-02-28 08:48:27 51°11.725 2°45.996 3.1407 2.679522 28.804449 1.51099
2005-02-28 08:48:33 51°11.716 2°45.958 3.1505 2.674683 28.754419 1.443571
2005-02-28 08:48:37 51°11.709 2°45.93 3.1611 2.678259 28.802343 1.477281
2005-02-28 08:48:42 51°11.703 2°45.902 3.1628 2.671211 28.720555 1.443571
2005-02-28 08:48:47 51°11.694 2°45.872 3.1711 2.672894 28.738867 1.409862
2005-02-28 08:48:53 51°11.686 2°45.834 3.1747 2.677207 28.782683 1.409862
2005-02-28 08:48:57 51°11.678 2°45.806 3.1813 2.677207 28.782683 1.409862
2005-02-28 08:49:03 51°11.67 2°45.771 3.1815 2.685623 28.873418 1.409862
2005-02-28 08:49:07 51°11.664 2°45.746 3.1817 2.685939 28.867513 1.409862
2005-02-28 08:49:13 51°11.655 2°45.709 3.1833 2.689516 28.900977 1.477281
2005-02-28 08:49:17 51°11.648 2°45.681 3.1824 2.682888 28.817005 1.51099
2005-02-28 08:49:21 51°11.641 2°45.656 3.1812 2.69183 28.916286 1.443571
2005-02-28 08:49:28 51°11.632 2°45.618 3.1768 2.69183 28.916286 1.443571
2005-02-28 08:49:33 51°11.624 2°45.585 3.1735 2.691935 28.911904 1.477281
2005-02-28 08:49:37 51°11.617 2°45.557 3.1677 2.688464 28.867665 1.51099
2005-02-28 08:49:41 51°11.61 2°45.532 3.1708 2.694881 28.941094 1.5447
2005-02-28 08:49:48 51°11.601 2°45.494 3.159 2.684781 28.820958 1.51099
2005-02-28 08:49:52 51°11.593 2°45.464 3.1516 2.691094 28.895533 1.477281
2005-02-28 08:49:57 51°11.585 2°45.433 3.1485 2.691094 28.895533 1.477281
2005-02-28 08:50:02 51°11.578 2°45.405 3.1475 2.698142 28.978838 1.477281
2005-02-28 08:50:07 51°11.569 2°45.374 3.158 2.692146 28.910374 1.443571
2005-02-28 08:50:13 51°11.56 2°45.337 3.1558 2.696249 28.963697 1.51099
2005-02-28 08:50:17 51°11.553 2°45.31 3.1644 2.692146 28.917606 1.477281
2005-02-28 08:50:21 51°11.546 2°45.285 3.1822 2.694776 28.957551 1.477281
2005-02-28 08:50:27 51°11.537 2°45.251 3.1719 2.694776 28.957551 1.477281
2005-02-28 08:50:32 51°11.528 2°45.218 3.1722 2.694776 28.963188 1.477281
2005-02-28 08:50:37 51°11.52 2°45.187 3.1706 2.690883 28.918758 1.409862
2005-02-28 08:50:43 51°11.511 2°45.153 3.1693 2.695302 28.968605 1.477281
2005-02-28 08:50:47 51°11.505 2°45.129 3.1671 2.69183 28.925934 1.477281
2005-02-28 08:50:53 51°11.495 2°45.092 3.1653 2.687306 28.864418 1.477281
2005-02-28 08:50:57 51°11.489 2°45.064 3.1621 2.687306 28.864418 1.477281
2005-02-28 08:51:02 51°11.481 2°45.037 3.1664 2.695723 28.958283 1.51099
2005-02-28 08:51:07 51°11.474 2°45.006 3.1688 2.695617 28.95543 1.5447
2005-02-28 08:51:13 51°11.464 2°44.97 3.1756 2.698248 28.988135 1.5447
2005-02-28 08:51:17 51°11.457 2°44.942 3.172 2.698248 28.988941 1.51099
2005-02-28 08:51:21 51°11.451 2°44.918 3.1795 2.702245 29.037831 1.51099
2005-02-28 08:51:27 51°11.442 2°44.884 3.1792 2.702245 29.037831 1.51099
2005-02-28 08:51:33 51°11.433 2°44.847 3.179 2.701088 29.028178 1.477281
2005-02-28 08:51:37 51°11.426 2°44.82 3.1815 2.703297 29.053504 1.51099
2005-02-28 08:51:42 51°11.419 2°44.792 3.1759 2.704139 29.061845 1.51099
2005-02-28 08:51:48 51°11.411 2°44.757 3.1648 2.703087 29.046171 1.51099
2005-02-28 08:51:53 51°11.403 2°44.724 3.1601 2.704349 29.05868 1.477281
2005-02-28 08:51:58 51°11.395 2°44.693 3.1615 2.704349 29.05868 1.477281
2005-02-28 08:52:03 51°11.387 2°44.663 3.159 2.696038 28.95799 1.51099
2005-02-28 08:52:07 51°11.381 2°44.638 3.1614 2.706769 29.084875 1.477281
2005-02-28 08:52:13 51°11.372 2°44.602 3.1661 2.705717 29.071625 1.477281
2005-02-28 08:52:17 51°11.365 2°44.575 3.168 2.694881 28.947528 1.477281
2005-02-28 08:52:23 51°11.355 2°44.542 3.1802 2.706033 29.085056 1.409862
2005-02-28 08:52:27 51°11.349 2°44.517 3.1821 2.706033 29.085056 1.409862
2005-02-28 08:52:33 51°11.34 2°44.481 3.1811 2.705402 29.080821 1.443571
2005-02-28 08:52:37 51°11.333 2°44.454 3.1928 2.706138 29.090343 1.5447
2005-02-28 08:52:43 51°11.324 2°44.42 3.1933 2.707506 29.107336 1.409862
2005-02-28 08:52:48 51°11.317 2°44.393 3.2001 2.699931 29.015297 1.51099
2005-02-28 08:52:52 51°11.31 2°44.363 3.1998 2.697616 28.984699 1.443571
2005-02-28 08:52:57 51°11.302 2°44.333 3.1971 2.697616 28.984699 1.443571
2005-02-28 08:53:03 51°11.293 2°44.299 3.2041 2.703403 29.046675 1.51099
2005-02-28 08:53:07 51°11.288 2°44.274 3.2065 2.701824 29.024787 1.51099
2005-02-28 08:53:12 51°11.279 2°44.241 3.2065 2.696038 28.95075 1.51099
2005-02-28 08:53:17 51°11.271 2°44.211 3.2033 2.712871 29.146529 1.477281
2005-02-28 08:53:23 51°11.264 2°44.177 3.1948 2.70961 29.102301 1.5447
2005-02-28 08:53:27 51°11.257 2°44.153 3.1997 2.70961 29.102301 1.5447
2005-02-28 08:53:32 51°11.249 2°44.119 3.1974 2.706769 29.069528 1.51099
2005-02-28 08:53:37 51°11.241 2°44.088 3.2079 2.70961 29.099876 1.51099
2005-02-28 08:53:42 51°11.233 2°44.058 3.213 2.716448 29.178301 1.477281
2005-02-28 08:53:47 51°11.227 2°44.03 3.2137 2.716869 29.182467 1.5447
2005-02-28 08:53:53 51°11.217 2°43.994 3.219 2.713187 29.140548 1.5447
2005-02-28 08:53:57 51°11.21 2°43.967 3.2258 2.713187 29.140548 1.5447
2005-02-28 08:54:02 51°11.203 2°43.939 3.2309 2.713081 29.140923 1.5447
2005-02-28 08:54:08 51°11.194 2°43.902 3.234 2.71508 29.165369 1.477281
2005-02-28 08:54:12 51°11.187 2°43.875 3.2336 2.71729 29.188254 1.51099
2005-02-28 08:54:17 51°11.179 2°43.845 3.239 2.717921 29.190856 1.5447
2005-02-28 08:54:23 51°11.17 2°43.811 3.2472 2.718868 29.197998 1.5447
2005-02-28 08:54:28 51°11.163 2°43.783 3.2518 2.718868 29.197998 1.5447
2005-02-28 08:54:33 51°11.155 2°43.749 3.256 2.711082 29.101935 1.51099
2005-02-28 08:54:37 51°11.148 2°43.722 3.259 2.718236 29.180816 1.477281
2005-02-28 08:54:43 51°11.139 2°43.688 3.2628 2.719604 29.19293 1.5447
2005-02-28 08:54:47 51°11.133 2°43.664 3.2652 2.715606 29.142455 1.51099
2005-02-28 08:54:53 51°11.123 2°43.628 3.2702 2.724233 29.239529 1.51099
2005-02-28 08:54:57 51°11.116 2°43.6 3.276 2.724233 29.239529 1.51099
2005-02-28 08:55:03 51°11.107 2°43.565 3.2775 2.723286 29.222666 1.578409
2005-02-28 08:55:07 51°11.101 2°43.541 3.2798 2.723707 29.222776 1.5447
2005-02-28 08:55:13 51°11.092 2°43.504 3.2787 2.724759 29.230341 1.578409
2005-02-28 08:55:17 51°11.085 2°43.477 3.2844 2.722129 29.195231 1.5447
2005-02-28 08:55:23 51°11.076 2°43.442 3.2937 2.728442 29.266536 1.578409
2005-02-28 08:55:27 51°11.07 2°43.418 3.28 2.728442 29.266536 1.578409
2005-02-28 08:55:33 51°11.061 2°43.38 3.2815 2.712239 29.071236 1.645828
2005-02-28 08:55:37 51°11.054 2°43.353 3.2815 2.730335 29.2816 1.5447
2005-02-28 08:55:43 51°11.045 2°43.319 3.2773 2.727915 29.250596 1.612118
2005-02-28 08:55:47 51°11.039 2°43.294 3.277 2.719604 29.150068 1.5447
2005-02-28 08:55:53 51°11.03 2°43.257 3.2785 2.730335 29.271868 1.612118
2005-02-28 08:55:57 51°11.023 2°43.229 3.2772 2.730335 29.271868 1.612118
2005-02-28 08:56:02 51°11.015 2°43.198 3.2758 2.728126 29.246598 1.578409
2005-02-28 08:56:07 51°11.009 2°43.17 3.2777 2.729388 29.262311 1.612118
2005-02-28 08:56:12 51°10.999 2°43.136 3.2782 2.722023 29.175391 1.612118
2005-02-28 08:56:17 51°10.993 2°43.104 3.2736 2.729073 29.260206 1.578409
2005-02-28 08:56:22 51°10.984 2°43.073 3.2809 2.713607 29.079316 1.578409
2005-02-28 08:56:27 51°10.978 2°43.045 3.2732 2.713607 29.079316 1.578409
2005-02-28 08:56:33 51°10.969 2°43.008 3.2659 2.724338 29.205941 1.612118
2005-02-28 08:56:37 51°10.962 2°42.981 3.2632 2.729599 29.268038 1.612118
2005-02-28 08:56:43 51°10.953 2°42.947 3.2604 2.724549 29.209233 1.612118
2005-02-28 08:56:48 51°10.946 2°42.918 3.2594 2.72781 29.245303 1.5447
2005-02-28 08:56:53 51°10.938 2°42.884 3.2662 2.728336 29.253943 1.578409
2005-02-28 08:56:57 51°10.931 2°42.856 3.2545 2.728336 29.253943 1.578409
2005-02-28 08:57:01 51°10.924 2°42.832 3.257 2.730125 29.276682 1.612118
2005-02-28 08:57:08 51°10.915 2°42.795 3.248 2.73044 29.285276 1.612118
2005-02-28 08:57:13 51°10.907 2°42.762 3.2422 2.725496 29.229317 1.612118
2005-02-28 08:57:17 51°10.899 2°42.734 3.2428 2.729494 29.279773 1.612118
2005-02-28 08:57:23 51°10.891 2°42.7 3.2385 2.726337 29.242497 1.612118
2005-02-28 08:57:27 51°10.885 2°42.675 3.2401 2.726337 29.242497 1.612118
2005-02-28 08:57:33 51°10.876 2°42.639 3.2388 2.728757 29.273509 1.578409
2005-02-28 08:57:37 51°10.869 2°42.612 3.2355 2.726863 29.253574 1.578409
2005-02-28 08:57:43 51°10.861 2°42.578 3.2306 2.728442 29.275461 1.5447
2005-02-28 08:57:48 51°10.854 2°42.55 3.2308 2.732019 29.323415 1.5447
2005-02-28 08:57:53 51°10.845 2°42.517 3.2242 2.730756 29.312559 1.51099
2005-02-28 08:57:57 51°10.839 2°42.493 3.224 2.730756 29.312559 1.51099
2005-02-28 08:58:03 51°10.83 2°42.457 3.2226 2.728968 29.292232 1.477281
2005-02-28 08:58:08 51°10.823 2°42.429 3.2228 2.731914 29.327051 1.477281
2005-02-28 08:58:13 51°10.815 2°42.396 3.2189 2.73023 29.310405 1.477281
2005-02-28 08:58:17 51°10.808 2°42.369 3.2226 2.727916 29.286296 1.477281
2005-02-28 08:58:23 51°10.8 2°42.335 3.2242 2.72739 29.28414 1.443571
2005-02-28 08:58:27 51°10.794 2°42.311 3.2216 2.72739 29.28414 1.443571
2005-02-28 08:58:33 51°10.785 2°42.275 3.2254 2.728757 29.302748 1.409862
2005-02-28 08:58:37 51°10.778 2°42.248 3.2195 2.730336 29.323036 1.477281
2005-02-28 08:58:43 51°10.771 2°42.214 3.2277 2.730967 29.331315 1.477281
2005-02-28 08:58:47 51°10.767 2°42.188 3.2128 2.729284 29.313035 1.477281
2005-02-28 08:58:53 51°10.761 2°42.15 3.2159 2.732124 29.345816 1.443571
2005-02-28 08:58:57 51°10.758 2°42.122 3.2171 2.732124 29.345816 1.443571
2005-02-28 08:59:02 51°10.754 2°42.093 3.22 2.731177 29.332989 1.51099
2005-02-28 08:59:07 51°10.751 2°42.06 3.2235 2.729599 29.314327 1.409862
2005-02-28 08:59:13 51°10.748 2°42.021 3.2297 2.728968 29.306863 1.409862
2005-02-28 08:59:17 51°10.745 2°41.992 3.2303 2.729494 29.31227 1.409862
2005-02-28 08:59:23 51°10.741 2°41.957 3.2362 2.732019 29.3462 1.409862
2005-02-28 08:59:27 51°10.738 2°41.931 3.2408 2.732019 29.3462 1.409862
2005-02-28 08:59:33 51°10.734 2°41.891 3.2395 2.732861 29.357785 1.477281
2005-02-28 08:59:38 51°10.731 2°41.859 3.2437 2.73244 29.351992 1.409862
2005-02-28 08:59:43 51°10.728 2°41.826 3.2459 2.733702 29.363666 1.409862
2005-02-28 08:59:47 51°10.725 2°41.8 3.2444 2.732229 29.344617 1.409862
2005-02-28 08:59:52 51°10.722 2°41.764 3.2474 2.733913 29.360452 1.376153
2005-02-28 08:59:58 51°10.718 2°41.728 3.2503 2.733913 29.360452 1.376153
2005-02-28 09:00:01 51°10.716 2°41.705 3.2486 2.735175 29.371308 1.443571
2005-02-28 09:00:08 51°10.711 2°41.665 3.2607 2.735281 29.370923 1.342443
2005-02-28 09:00:12 51°10.708 2°41.633 3.2587 2.735491 29.370967 1.477281
2005-02-28 09:00:18 51°10.705 2°41.596 3.2651 2.736648 29.38302 1.409862
2005-02-28 09:00:23 51°10.701 2°41.564 3.2682 2.735491 29.367709 1.409862
2005-02-28 09:00:27 51°10.698 2°41.538 3.2731 2.735491 29.367709 1.409862
2005-02-28 09:00:33 51°10.693 2°41.499 3.2759 2.733281 29.339964 1.443571
2005-02-28 09:00:37 51°10.69 2°41.469 3.2776 2.734544 29.351631 1.477281
2005-02-28 09:00:43 51°10.685 2°41.433 3.2737 2.734123 29.342589 1.477281
2005-02-28 09:00:48 51°10.681 2°41.401 3.2746 2.737385 29.376249 1.376153
2005-02-28 09:00:52 51°10.677 2°41.371 3.2746 2.738016 29.380451 1.443571
2005-02-28 09:00:57 51°10.673 2°41.342 3.2704 2.738016 29.380451 1.443571
2005-02-28 09:01:01 51°10.669 2°41.313 3.2707 2.737279 29.368493 1.477281
2005-02-28 09:01:08 51°10.663 2°41.27 3.2703 2.739699 29.394641 1.477281
2005-02-28 09:01:12 51°10.659 2°41.241 3.2648 2.739804 29.394255 1.477281
2005-02-28 09:01:17 51°10.655 2°41.208 3.2688 2.738647 29.379768 1.477281
2005-02-28 09:01:23 51°10.65 2°41.173 3.2708 2.73507 29.337513 1.5447
2005-02-28 09:01:28 51°10.645 2°41.14 3.279 2.73507 29.337513 1.5447
2005-02-28 09:01:33 51°10.641 2°41.108 3.2803 2.74012 29.39717 1.443571
2005-02-28 09:01:37 51°10.637 2°41.079 3.2887 2.740436 29.403343 1.51099
2005-02-28 09:01:42 51°10.632 2°41.046 3.2966 2.737595 29.369781 1.443571
2005-02-28 09:01:47 51°10.628 2°41.016 3.2953 2.739068 29.388811 1.51099
2005-02-28 09:01:53 51°10.623 2°40.978 3.3012 2.739173 29.38924 1.443571
2005-02-28 09:01:57 51°10.619 2°40.948 3.2966 2.739173 29.38924 1.443571
2005-02-28 09:02:03 51°10.614 2°40.912 3.2896 2.74033 29.399656 1.443571
2005-02-28 09:02:07 51°10.611 2°40.886 3.2879 2.741067 29.404284 1.477281
2005-02-28 09:02:13 51°10.605 2°40.847 3.2885 2.742014 29.408952 1.477281
2005-02-28 09:02:17 51°10.601 2°40.818 3.2827 2.743171 29.417734 1.51099
2005-02-28 09:02:23 51°10.596 2°40.782 3.2734 2.742961 29.411176 1.51099
2005-02-28 09:02:27 51°10.592 2°40.756 3.2643 2.742961 29.411176 1.51099
2005-02-28 09:02:33 51°10.587 2°40.716 3.2574 2.743066 29.411604 1.477281
2005-02-28 09:02:37 51°10.583 2°40.691 3.2632 2.731387 29.276179 1.51099
2005-02-28 09:02:43 51°10.578 2°40.652 3.2592 2.736437 29.337412 1.51099
2005-02-28 09:02:48 51°10.573 2°40.622 3.254 2.742855 29.415635 1.5447
2005-02-28 09:02:53 51°10.569 2°40.587 3.2557 2.743066 29.424639 1.443571
2005-02-28 09:02:57 51°10.564 2°40.56 3.2558 2.743066 29.424639 1.443571
2005-02-28 09:03:02 51°10.56 2°40.531 3.2424 2.741909 29.418302 1.443571
2005-02-28 09:03:07 51°10.557 2°40.506 3.234 2.738331 29.382552 1.51099
2005-02-28 09:03:13 51°10.552 2°40.476 3.2337 2.740541 29.409475 1.477281
2005-02-28 09:03:18 51°10.548 2°40.452 3.2222 2.73991 29.40446 1.409862
2005-02-28 09:03:22 51°10.543 2°40.433 3.2137 2.739278 29.400259 1.376153
2005-02-28 09:03:28 51°10.538 2°40.41 3.1917 2.739278 29.400259 1.376153
2005-02-28 09:03:33 51°10.533 2°40.391 3.1802 2.738858 29.3961 1.342443
2005-02-28 09:03:37 51°10.529 2°40.377 3.159 2.738437 29.396831 1.376153
2005-02-28 09:03:42 51°10.523 2°40.359 3.1423 2.73749 29.391342 1.342443
2005-02-28 09:03:48 51°10.517 2°40.343 3.1349 2.737174 29.395762 1.409862
2005-02-28 09:03:53 51°10.513 2°40.328 3.106 2.736122 29.39392 1.308734
2005-02-28 09:03:57 51°10.508 2°40.316 3.0968 2.736122 29.39392 1.308734
2005-02-28 09:04:03 51°10.502 2°40.301 3.0782 2.728337 29.312412 1.275024
2005-02-28 09:04:07 51°10.499 2°40.291 3.0746 2.731598 29.365671 1.275024
2005-02-28 09:04:12 51°10.493 2°40.278 3.0668 2.730336 29.370306 1.241315
2005-02-28 09:04:18 51°10.488 2°40.265 3.0594 2.728442 29.361751 1.207606
2005-02-28 09:04:22 51°10.484 2°40.256 3.0582 2.726549 29.355641 1.173896
2005-02-28 09:04:27 51°10.479 2°40.246 3.0515 2.726549 29.355641 1.173896
2005-02-28 09:04:32 51°10.474 2°40.235 3.048 2.724024 29.342857 1.173896
2005-02-28 09:04:37 51°10.47 2°40.226 3.0406 2.720342 29.313065 1.072768
2005-02-28 09:04:43 51°10.465 2°40.215 3.0425 2.720447 29.32902 1.039059
2005-02-28 09:04:47 51°10.461 2°40.208 3.0403 2.71708 29.300497 1.072768
2005-02-28 09:04:52 51°10.457 2°40.197 3.036 2.71687 29.30617 0.97164
2005-02-28 09:04:57 51°10.453 2°40.189 3.0349 2.71687 29.30617 0.97164
2005-02-28 09:05:03 51°10.449 2°40.179 3.0307 2.716134 29.301511 0.97164
2005-02-28 09:05:07 51°10.446 2°40.17 3.0328 2.715292 29.297237 0.904221
2005-02-28 09:05:13 51°10.441 2°40.158 3.034 2.715082 29.298825 0.904221
2005-02-28 09:05:17 51°10.437 2°40.148 3.0356 2.71424 29.291279 0.904221
2005-02-28 09:05:23 51°10.434 2°40.135 3.0381 2.714556 29.299117 0.97164
2005-02-28 09:05:27 51°10.431 2°40.124 3.0371 2.714556 29.299117 0.97164
2005-02-28 09:05:33 51°10.428 2°40.107 3.0363 2.712346 29.276953 0.904221
2005-02-28 09:05:37 51°10.425 2°40.094 3.0381 2.713504 29.291522 0.870512
2005-02-28 09:05:43 51°10.421 2°40.075 3.04 2.713398 29.290272 0.904221
2005-02-28 09:05:47 51°10.419 2°40.061 3.0388 2.712557 29.281088 0.97164
2005-02-28 09:05:53 51°10.415 2°40.037 3.0378 2.713925 29.296523 0.93793
2005-02-28 09:05:57 51°10.412 2°40.018 3.0401 2.713925 29.296523 0.93793
2005-02-28 09:06:02 51°10.408 2°39.998 3.0558 2.713819 29.294455 0.93793
2005-02-28 09:06:07 51°10.405 2°39.975 3.0576 2.713819 29.295273 0.97164
2005-02-28 09:06:13 51°10.4 2°39.946 3.0645 2.71403 29.296955 0.97164
2005-02-28 09:06:17 51°10.398 2°39.923 3.0615 2.713504 29.289887 1.005349
2005-02-28 09:06:23 51°10.393 2°39.895 3.0707 2.710663 29.256952 1.005349
2005-02-28 09:06:27 51°10.39 2°39.873 3.0775 2.710663 29.256952 1.005349
2005-02-28 09:06:33 51°10.385 2°39.839 3.0717 2.71424 29.29782 1.005349
2005-02-28 09:06:38 51°10.38 2°39.81 3.077 2.715713 29.311232 1.005349
2005-02-28 09:06:43 51°10.375 2°39.782 3.0735 2.716765 29.318005 1.005349
2005-02-28 09:06:47 51°10.372 2°39.758 3.0789 2.718133 29.329343 1.039059
2005-02-28 09:06:52 51°10.367 2°39.725 3.0745 2.718554 29.331069 1.072768
2005-02-28 09:06:57 51°10.362 2°39.695 3.0762 2.718554 29.331069 1.072768
2005-02-28 09:07:03 51°10.357 2°39.661 3.0814 2.720132 29.343266 1.106477
2005-02-28 09:07:08 51°10.353 2°39.633 3.0796 2.720973 29.352444 1.140187
2005-02-28 09:07:13 51°10.348 2°39.6 3.0868 2.721499 29.357054 1.140187
2005-02-28 09:07:17 51°10.344 2°39.573 3.0935 2.721815 29.358346 1.207606
2005-02-28 09:07:23 51°10.339 2°39.539 3.0938 2.721499 29.352961 1.140187
2005-02-28 09:07:28 51°10.335 2°39.508 3.1078 2.721499 29.352961 1.140187
2005-02-28 09:07:33 51°10.33 2°39.478 3.105 2.721289 29.350463 1.207606
2005-02-28 09:07:37 51°10.326 2°39.453 3.1162 2.722025 29.358389 1.207606
2005-02-28 09:07:43 51°10.321 2°39.417 3.1372 2.722236 29.359251 1.207606
2005-02-28 09:07:47 51°10.317 2°39.392 3.1433 2.722972 29.363083 1.241315
2005-02-28 09:07:53 51°10.312 2°39.355 3.1583 2.723183 29.362308 1.207606
2005-02-28 09:07:57 51°10.308 2°39.331 3.1536 2.723183 29.362308 1.207606
2005-02-28 09:08:03 51°10.303 2°39.294 3.1564 2.723498 29.360326 1.207606
2005-02-28 09:08:08 51°10.299 2°39.266 3.1484 2.724761 29.369582 1.207606
2005-02-28 09:08:13 51°10.293 2°39.232 3.1434 2.725076 29.363511 1.241315
2005-02-28 09:08:17 51°10.289 2°39.205 3.1349 2.726654 29.370782 1.241315
2005-02-28 09:08:22 51°10.284 2°39.174 3.1355 2.728022 29.37719 1.207606
2005-02-28 09:08:27 51°10.28 2°39.147 3.1274 2.728022 29.37719 1.207606
2005-02-28 09:08:33 51°10.275 2°39.109 3.1251 2.729495 29.385659 1.275024
2005-02-28 09:08:37 51°10.27 2°39.082 3.1241 2.729495 29.382389 1.241315
2005-02-28 09:08:43 51°10.265 2°39.048 3.1185 2.729074 29.379035 1.275024
2005-02-28 09:08:47 51°10.262 2°39.023 3.1263 2.728127 29.371898 1.275024
2005-02-28 09:08:52 51°10.257 2°38.995 3.1339 2.727811 29.37306 1.207606
2005-02-28 09:08:57 51°10.252 2°38.958 3.1472 2.727811 29.37306 1.207606
2005-02-28 09:09:03 51°10.247 2°38.923 3.1657 2.726338 29.359682 1.241315
2005-02-28 09:09:07 51°10.243 2°38.899 3.1779 2.72455 29.341743 1.207606
2005-02-28 09:09:13 51°10.238 2°38.862 3.1946 2.724129 29.34002 1.275024
2005-02-28 09:09:17 51°10.235 2°38.834 3.2083 2.724129 29.343288 1.207606
2005-02-28 09:09:23 51°10.23 2°38.8 3.2244 2.723708 29.334213 1.275024
2005-02-28 09:09:27 51°10.226 2°38.776 3.2398 2.723708 29.334213 1.275024
2005-02-28 09:09:33 51°10.221 2°38.739 3.2497 2.72455 29.33766 1.241315
2005-02-28 09:09:37 51°10.217 2°38.712 3.2582 2.726759 29.352418 1.308734
2005-02-28 09:09:43 51°10.212 2°38.678 3.2684 2.7296 29.370564 1.241315
2005-02-28 09:09:47 51°10.209 2°38.654 3.2776 2.733282 29.398664 1.275024
2005-02-28 09:09:53 51°10.203 2°38.617 3.2872 2.734544 29.399729 1.275024
2005-02-28 09:09:57 51°10.199 2°38.59 3.2924 2.734544 29.399729 1.275024
2005-02-28 09:10:01 51°10.196 2°38.568 3.3004 2.737806 29.423634 1.308734
2005-02-28 09:10:08 51°10.19 2°38.528 3.3051 2.740436 29.440054 1.308734
2005-02-28 09:10:13 51°10.185 2°38.494 3.3089 2.742119 29.446897 1.308734
2005-02-28 09:10:17 51°10.181 2°38.467 3.3118 2.744329 29.461589 1.308734
2005-02-28 09:10:21 51°10.178 2°38.445 3.3132 2.745802 29.470018 1.342443
2005-02-28 09:10:27 51°10.172 2°38.408 3.3162 2.745802 29.470018 1.342443
2005-02-28 09:10:33 51°10.166 2°38.37 3.313 2.748432 29.49212 1.275024
2005-02-28 09:10:37 51°10.162 2°38.342 3.3155 2.749589 29.498443 1.376153
2005-02-28 09:10:41 51°10.159 2°38.317 3.3106 2.751694 29.515133 1.308734
2005-02-28 09:10:47 51°10.154 2°38.283 3.3122 2.75243 29.51893 1.308734
2005-02-28 09:10:53 51°10.148 2°38.246 3.2977 2.753272 29.524786 1.308734
2005-02-28 09:10:58 51°10.145 2°38.215 3.2945 2.753272 29.524786 1.308734
2005-02-28 09:11:01 51°10.141 2°38.193 3.2902 2.753272 29.520701 1.308734
2005-02-28 09:11:07 51°10.136 2°38.158 3.2815 2.753482 29.522369 1.376153
2005-02-28 09:11:12 51°10.132 2°38.124 3.2776 2.75264 29.511612 1.308734
2005-02-28 09:11:17 51°10.128 2°38.093 3.2607 2.75264 29.513246 1.308734
2005-02-28 09:11:23 51°10.123 2°38.058 3.2499 2.751167 29.499117 1.308734
2005-02-28 09:11:28 51°10.119 2°38.027 3.2369 2.751167 29.499117 1.308734
2005-02-28 09:11:32 51°10.116 2°37.998 3.2277 2.750747 29.499046 1.308734
2005-02-28 09:11:37 51°10.112 2°37.97 3.2354 2.749484 29.491482 1.342443
2005-02-28 09:11:43 51°10.107 2°37.933 3.2094 2.748748 29.488498 1.376153
2005-02-28 09:11:48 51°10.103 2°37.904 3.1982 2.746854 29.472653 1.342443
2005-02-28 09:11:53 51°10.099 2°37.87 3.1834 2.745065 29.462946 1.308734
2005-02-28 09:11:57 51°10.095 2°37.842 3.1812 2.745065 29.462946 1.308734
2005-02-28 09:12:03 51°10.09 2°37.808 3.1684 2.743171 29.450356 1.308734
2005-02-28 09:12:08 51°10.086 2°37.779 3.1761 2.740962 29.43566 1.241315
2005-02-28 09:12:12 51°10.082 2°37.748 3.1578 2.739384 29.425974 1.241315
2005-02-28 09:12:17 51°10.078 2°37.717 3.1597 2.737175 29.410448 1.241315
2005-02-28 09:12:22 51°10.074 2°37.688 3.154 2.735281 29.399465 1.275024
2005-02-28 09:12:28 51°10.068 2°37.65 3.1618 2.735281 29.399465 1.275024
2005-02-28 09:12:33 51°10.065 2°37.619 3.1588 2.733071 29.385556 1.207606
2005-02-28 09:12:38 51°10.06 2°37.589 3.1521 2.731178 29.372928 1.241315
2005-02-28 09:12:43 51°10.056 2°37.557 3.1518 2.729705 29.360381 1.173896
2005-02-28 09:12:47 51°10.052 2°37.532 3.1461 2.728863 29.357757 1.207606
2005-02-28 09:12:53 51°10.047 2°37.494 3.1398 2.728337 29.356423 1.207606
2005-02-28 09:12:58 51°10.043 2°37.462 3.1361 2.728337 29.356423 1.207606
2005-02-28 09:13:03 51°10.039 2°37.431 3.1425 2.727495 29.346452 1.207606
2005-02-28 09:13:08 51°10.034 2°37.403 3.1301 2.728022 29.352684 1.241315
2005-02-28 09:13:13 51°10.03 2°37.369 3.1304 2.727496 29.351348 1.275024
2005-02-28 09:13:17 51°10.026 2°37.34 3.1234 2.726443 29.343779 1.241315
2005-02-28 09:13:22 51°10.022 2°37.311 3.1193 2.726338 29.345797 1.207606
2005-02-28 09:13:27 51°10.017 2°37.28 3.1141 2.726338 29.345797 1.207606
2005-02-28 09:13:32 51°10.013 2°37.246 3.1128 2.725286 29.336594 1.241315
2005-02-28 09:13:38 51°10.008 2°37.211 3.12 2.724129 29.326141 1.241315
2005-02-28 09:13:43 51°10.005 2°37.179 3.1024 2.724234 29.331469 1.275024
2005-02-28 09:13:47 51°10.001 2°37.154 3.1007 2.72234 29.3131 1.308734
2005-02-28 09:13:53 51°9.998 2°37.115 3.0966 2.722446 29.32006 1.275024
2005-02-28 09:13:58 51°9.995 2°37.083 3.1056 2.722446 29.32006 1.275024
2005-02-28 09:14:03 51°9.992 2°37.051 3.1089 2.720762 29.303364 1.241315
2005-02-28 09:14:08 51°9.99 2°37.022 3.1154 2.719605 29.292904 1.275024
2005-02-28 09:14:13 51°9.988 2°36.987 3.12 2.718658 29.282492 1.275024
2005-02-28 09:14:17 51°9.984 2°36.958 3.1263 2.716765 29.269003 1.207606
2005-02-28 09:14:23 51°9.982 2°36.923 3.1234 2.716133 29.266407 1.241315
2005-02-28 09:14:28 51°9.978 2°36.891 3.1172 2.716133 29.266407 1.241315
2005-02-28 09:14:32 51°9.976 2°36.862 3.1101 2.715292 29.256424 1.308734
2005-02-28 09:14:38 51°9.972 2°36.827 3.1021 2.716133 29.261516 1.275024
2005-02-28 09:14:41 51°9.97 2°36.805 3.1052 2.716554 29.260802 1.275024
2005-02-28 09:14:48 51°9.966 2°36.766 3.1019 2.717501 29.268769 1.308734
2005-02-28 09:14:53 51°9.966 2°36.731 3.102 2.718448 29.276736 1.275024
2005-02-28 09:14:57 51°9.965 2°36.702 3.1079 2.718448 29.276736 1.275024
2005-02-28 09:15:02 51°9.965 2°36.67 3.111 2.71687 29.25884 1.308734
2005-02-28 09:15:07 51°9.966 2°36.641 3.119 2.715923 29.252502 1.275024
2005-02-28 09:15:13 51°9.968 2°36.602 3.1255 2.715081 29.247409 1.275024
2005-02-28 09:15:17 51°9.969 2°36.574 3.1404 2.713819 29.233253 1.342443
2005-02-28 09:15:21 51°9.97 2°36.548 3.1458 2.713082 29.22452 1.308734
2005-02-28 09:15:27 51°9.972 2°36.512 3.1498 2.713082 29.22452 1.308734
2005-02-28 09:15:33 51°9.974 2°36.474 3.1507 2.71182 29.211991 1.308734
2005-02-28 09:15:37 51°9.975 2°36.445 3.1484 2.712241 29.212913 1.342443
2005-02-28 09:15:43 51°9.978 2°36.41 3.1385 2.712451 29.210526 1.308734
2005-02-28 09:15:47 51°9.979 2°36.383 3.1305 2.713924 29.221477 1.308734
2005-02-28 09:15:53 51°9.981 2°36.345 3.1283 2.714345 29.216705 1.308734
2005-02-28 09:15:57 51°9.983 2°36.317 3.1136 2.714345 29.216705 1.308734
2005-02-28 09:16:03 51°9.984 2°36.281 3.1085 2.716028 29.230957 1.308734
2005-02-28 09:16:08 51°9.986 2°36.249 3.1024 2.71729 29.241847 1.308734
2005-02-28 09:16:13 51°9.988 2°36.217 3.0942 2.716238 29.227757 1.275024
2005-02-28 09:16:17 51°9.991 2°36.188 3.1039 2.715397 29.223478 1.376153
2005-02-28 09:16:23 51°9.996 2°36.154 3.1052 2.713818 29.210471 1.342443
2005-02-28 09:16:28 51°10.001 2°36.126 3.1061 2.713818 29.210471 1.342443
2005-02-28 09:16:33 51°10.009 2°36.094 3.0981 2.71203 29.197406 1.376153
2005-02-28 09:16:37 51°10.017 2°36.069 3.1004 2.710452 29.184392 1.376153
2005-02-28 09:16:42 51°10.026 2°36.042 3.0918 2.708769 29.173377 1.376153
2005-02-28 09:16:48 51°10.037 2°36.011 3.079 2.707717 29.161718 1.443571
2005-02-28 09:16:52 51°10.046 2°35.987 3.0861 2.706559 29.148811 1.342443
2005-02-28 09:16:57 51°10.056 2°35.961 3.0937 2.706559 29.148811 1.342443
2005-02-28 09:17:03 51°10.068 2°35.931 3.0997 2.704876 29.129668 1.409862
2005-02-28 09:17:08 51°10.079 2°35.906 3.1086 2.704771 29.12761 1.308734
2005-02-28 09:17:13 51°10.09 2°35.88 3.1127 2.704034 29.119692 1.342443
2005-02-28 09:17:17 51°10.1 2°35.857 3.1137 2.702982 29.114521 1.376153
2005-02-28 09:17:22 51°10.112 2°35.833 3.1242 2.70151 29.10517 1.409862
2005-02-28 09:17:27 51°10.123 2°35.811 3.1263 2.70151 29.10517 1.409862
2005-02-28 09:17:33 51°10.137 2°35.783 3.1294 2.70193 29.109349 1.342443
2005-02-28 09:17:37 51°10.149 2°35.763 3.1438 2.703403 29.121133 1.342443
2005-02-28 09:17:43 51°10.165 2°35.742 3.1555 2.704771 29.131667 1.342443
2005-02-28 09:17:47 51°10.176 2°35.727 3.1347 2.705823 29.140081 1.409862
2005-02-28 09:17:52 51°10.19 2°35.711 3.119 2.705718 29.133964 1.308734
2005-02-28 09:17:57 51°10.207 2°35.692 3.1117 2.705718 29.133964 1.308734
2005-02-28 09:18:03 51°10.224 2°35.675 3.099 2.707401 29.148233 1.308734
2005-02-28 09:18:07 51°10.237 2°35.663 3.0927 2.708453 29.154207 1.342443
2005-02-28 09:18:13 51°10.256 2°35.648 3.1051 2.709295 29.156063 1.342443
2005-02-28 09:18:17 51°10.269 2°35.639 3.1097 2.710031 29.159918 1.308734
2005-02-28 09:18:23 51°10.29 2°35.629 3.1156 2.709295 29.156874 1.308734
2005-02-28 09:18:27 51°10.304 2°35.623 3.1537 2.709295 29.156874 1.308734
2005-02-28 09:18:32 51°10.323 2°35.617 3.1658 2.70719 29.140871 1.308734
2005-02-28 09:18:37 51°10.341 2°35.614 3.1974 2.705718 29.132342 1.275024
2005-02-28 09:18:43 51°10.361 2°35.612 3.2268 2.702982 29.1056 1.241315
2005-02-28 09:18:48 51°10.377 2°35.611 3.2577 2.702141 29.097246 1.241315
2005-02-28 09:18:53 51°10.395 2°35.61 3.2803 2.703298 29.10772 1.241315
2005-02-28 09:18:57 51°10.411 2°35.611 3.3136 2.703298 29.10772 1.241315
2005-02-28 09:19:01 51°10.423 2°35.612 3.3377 2.70719 29.141682 1.241315
2005-02-28 09:19:08 51°10.447 2°35.617 3.3569 2.713187 29.190806 1.376153
2005-02-28 09:19:12 51°10.462 2°35.623 3.3792 2.720657 29.254877 1.443571
2005-02-28 09:19:17 51°10.478 2°35.63 3.388 2.728442 29.319355 1.409862
2005-02-28 09:19:23 51°10.495 2°35.641 3.4046 2.735701 29.377529 1.477281
2005-02-28 09:19:28 51°10.51 2°35.653 3.4099 2.735701 29.377529 1.477281
2005-02-28 09:19:33 51°10.525 2°35.666 3.4178 2.743277 29.438541 1.51099
2005-02-28 09:19:37 51°10.537 2°35.678 3.424 2.75001 29.48545 1.5447
2005-02-28 09:19:43 51°10.553 2°35.694 3.4294 2.757585 29.552838 1.578409
2005-02-28 09:19:47 51°10.564 2°35.706 3.4368 2.76232 29.58746 1.578409
2005-02-28 09:19:53 51°10.581 2°35.724 3.4457 2.767265 29.625346 1.612118
2005-02-28 09:19:57 51°10.593 2°35.737 3.4548 2.767265 29.625346 1.612118
2005-02-28 09:20:03 51°10.608 2°35.752 3.459 2.769895 29.643272 1.578409
2005-02-28 09:20:07 51°10.62 2°35.764 3.4638 2.773999 29.681825 1.578409
2005-02-28 09:20:13 51°10.637 2°35.781 3.4677 2.777682 29.717861 1.578409
2005-02-28 09:20:17 51°10.65 2°35.793 3.4697 2.780523 29.743967 1.578409
2005-02-28 09:20:23 51°10.666 2°35.808 3.4742 2.783363 29.769243 1.612118
2005-02-28 09:20:27 51°10.678 2°35.82 3.4792 2.783363 29.769243 1.612118
2005-02-28 09:20:33 51°10.695 2°35.837 3.4838 2.785994 29.792031 1.5447
2005-02-28 09:20:37 51°10.708 2°35.851 3.4869 2.788835 29.816468 1.5447
2005-02-28 09:20:43 51°10.723 2°35.868 3.4921 2.790308 29.827249 1.51099
2005-02-28 09:20:48 51°10.736 2°35.883 3.4994 2.792518 29.848345 1.5447
2005-02-28 09:20:53 51°10.75 2°35.9 3.5029 2.793254 29.853732 1.5447
2005-02-28 09:20:57 51°10.762 2°35.915 3.5085 2.793254 29.853732 1.5447
2005-02-28 09:21:03 51°10.777 2°35.933 3.5123 2.794201 29.859952 1.51099
2005-02-28 09:21:08 51°10.791 2°35.949 3.5159 2.795464 29.869887 1.443571
2005-02-28 09:21:12 51°10.804 2°35.963 3.5176 2.796937 29.882298 1.443571
2005-02-28 09:21:17 51°10.818 2°35.979 3.5225 2.798515 29.8943 1.51099
2005-02-28 09:21:23 51°10.833 2°35.997 3.5209 2.800094 29.907943 1.477281
2005-02-28 09:21:27 51°10.844 2°36.009 3.5268 2.800094 29.907943 1.477281
2005-02-28 09:21:33 51°10.861 2°36.027 3.5297 2.801567 29.919522 1.612118
2005-02-28 09:21:37 51°10.873 2°36.041 3.5285 2.803776 29.939767 1.578409
2005-02-28 09:21:41 51°10.884 2°36.054 3.5333 2.804724 29.947618 1.645828
2005-02-28 09:21:48 51°10.902 2°36.073 3.5404 2.806197 29.961659 1.612118
2005-02-28 09:21:53 51°10.917 2°36.09 3.5445 2.806407 29.961664 1.5447
2005-02-28 09:21:58 51°10.931 2°36.107 3.542 2.806407 29.961664 1.5447
2005-02-28 09:22:02 51°10.942 2°36.119 3.5455 2.806828 29.962498 1.612118
2005-02-28 09:22:07 51°10.955 2°36.135 3.5487 2.807354 29.965393 1.578409
2005-02-28 09:22:13 51°10.972 2°36.155 3.5482 2.807354 29.963746 1.578409
2005-02-28 09:22:17 51°10.984 2°36.169 3.5507 2.807985 29.967878 1.645828
2005-02-28 09:22:23 51°10.999 2°36.187 3.5544 2.808932 29.974076 1.645828
2005-02-28 09:22:27 51°11.01 2°36.2 3.5601 2.808932 29.974076 1.645828
2005-02-28 09:22:32 51°11.025 2°36.218 3.5584 2.809879 29.981096 1.679537
2005-02-28 09:22:37 51°11.037 2°36.232 3.562 2.809669 29.977797 1.679537
2005-02-28 09:22:43 51°11.054 2°36.251 3.5698 2.810826 29.988114 1.713247
2005-02-28 09:22:47 51°11.065 2°36.264 3.577 2.811353 29.992654 1.780665
2005-02-28 09:22:53 51°11.081 2°36.282 3.58 2.811142 29.986884 1.814375
2005-02-28 09:22:58 51°11.095 2°36.299 3.5883 2.811142 29.986884 1.814375
2005-02-28 09:23:03 51°11.108 2°36.314 3.5943 2.811773 29.991836 1.881794
2005-02-28 09:23:07 51°11.119 2°36.327 3.5982 2.811668 29.988952 1.982922
2005-02-28 09:23:13 51°11.135 2°36.346 3.5978 2.812194 29.99102 1.915503
2005-02-28 09:23:18 51°11.149 2°36.362 3.5949 2.813247 29.997624 2.016631
2005-02-28 09:23:21 51°11.158 2°36.373 3.594 2.813878 29.99928 2.117759
2005-02-28 09:23:28 51°11.175 2°36.394 3.5922 2.813878 29.99928 2.117759
2005-02-28 09:23:33 51°11.189 2°36.409 3.5944 2.815035 30.006295 2.050341
2005-02-28 09:23:37 51°11.201 2°36.424 3.5899 2.81514 30.000945 2.050341
2005-02-28 09:23:41 51°11.211 2°36.434 3.5904 2.816087 30.007131 1.949212
2005-02-28 09:23:48 51°11.23 2°36.457 3.5876 2.816087 30.004662 1.848084
2005-02-28 09:23:53 51°11.243 2°36.473 3.588 2.816824 30.013314 1.848084
2005-02-28 09:23:57 51°11.255 2°36.487 3.5878 2.816824 30.013314 1.848084
2005-02-28 09:24:03 51°11.27 2°36.505 3.5887 2.816824 30.01496 1.814375
2005-02-28 09:24:07 51°11.281 2°36.517 3.5925 2.81735 30.020317 1.848084
2005-02-28 09:24:13 51°11.297 2°36.536 3.5913 2.816824 30.015783 1.915503
2005-02-28 09:24:18 51°11.311 2°36.552 3.5975 2.817561 30.025259 1.881794
2005-02-28 09:24:21 51°11.32 2°36.563 3.5989 2.816719 30.017017 1.780665
2005-02-28 09:24:27 51°11.335 2°36.579 3.5949 2.816719 30.017017 1.780665
2005-02-28 09:24:33 51°11.351 2°36.598 3.5952 2.816824 30.018253 1.848084
2005-02-28 09:24:37 51°11.364 2°36.612 3.5981 2.816929 30.01949 1.746956
2005-02-28 09:24:43 51°11.379 2°36.629 3.5982 2.816614 30.014135 1.814375
2005-02-28 09:24:48 51°11.392 2°36.645 3.6003 2.817035 30.016609 1.881794
2005-02-28 09:24:53 51°11.406 2°36.66 3.6004 2.816508 30.008783 1.949212
2005-02-28 09:24:57 51°11.418 2°36.674 3.6008 2.816508 30.008783 1.949212
2005-02-28 09:25:03 51°11.433 2°36.691 3.5982 2.817035 30.014962 2.016631
2005-02-28 09:25:07 51°11.444 2°36.703 3.5986 2.815877 30.000545 2.050341
2005-02-28 09:25:13 51°11.46 2°36.722 3.5926 2.816824 30.010844 2.08405
2005-02-28 09:25:17 51°11.471 2°36.733 3.593 2.816929 30.01208 2.117759
2005-02-28 09:25:23 51°11.488 2°36.752 3.5745 2.817455 30.017436 2.08405
2005-02-28 09:25:28 51°11.5 2°36.765 3.5703 2.817455 30.017436 2.08405
2005-02-28 09:25:32 51°11.513 2°36.78 3.5745 2.816614 30.005904 2.117759
2005-02-28 09:25:37 51°11.527 2°36.795 3.5737 2.816824 30.009198 2.050341
2005-02-28 09:25:43 51°11.542 2°36.813 3.5709 2.81714 30.013729 2.050341
2005-02-28 09:25:48 51°11.555 2°36.827 3.5735 2.81714 30.015375 1.915503
2005-02-28 09:25:53 51°11.569 2°36.842 3.5754 2.81493 29.993536 1.780665
2005-02-28 09:25:57 51°11.581 2°36.856 3.5789 2.81493 29.993536 1.780665
2005-02-28 09:26:02 51°11.594 2°36.87 3.581 2.813562 29.986517 1.679537
2005-02-28 09:26:08 51°11.61 2°36.888 3.581 2.810616 29.955194 1.645828
2005-02-28 09:26:13 51°11.623 2°36.903 3.5756 2.810616 29.956016 1.5447
2005-02-28 09:26:18 51°11.636 2°36.918 3.5753 2.808827 29.936645 1.578409
2005-02-28 09:26:23 51°11.649 2°36.934 3.5746 2.80809 29.927171 1.5447
2005-02-28 09:26:28 51°11.663 2°36.95 3.5724 2.80809 29.927171 1.5447
2005-02-28 09:26:33 51°11.676 2°36.965 3.5695 2.808722 29.933766 1.5447
2005-02-28 09:26:37 51°11.688 2°36.979 3.5664 2.80809 29.924708 1.578409
2005-02-28 09:26:43 51°11.703 2°36.996 3.5675 2.807564 29.916886 1.578409
2005-02-28 09:26:47 51°11.714 2°37.009 3.5683 2.797462 29.799094 1.612118
2005-02-28 09:26:53 51°11.73 2°37.027 3.5651 2.787466 29.682593 1.612118
2005-02-28 09:26:58 51°11.744 2°37.043 3.565 2.787466 29.682593 1.612118
2005-02-28 09:27:03 51°11.757 2°37.057 3.564 2.78694 29.678048 1.645828
2005-02-28 09:27:07 51°11.768 2°37.069 3.5641 2.777575 29.569814 1.645828
2005-02-28 09:27:13 51°11.784 2°37.088 3.5659 2.774208 29.534378 1.645828
2005-02-28 09:27:18 51°11.798 2°37.103 3.5648 2.778206 29.58209 1.645828
2005-02-28 09:27:23 51°11.811 2°37.117 3.5682 2.786414 29.68002 1.645828
2005-02-28 09:27:27 51°11.823 2°37.129 3.5664 2.786414 29.68002 1.645828
2005-02-28 09:27:33 51°11.839 2°37.147 3.5674 2.782626 29.635566 1.612118
2005-02-28 09:27:38 51°11.852 2°37.163 3.568 2.786309 29.679599 1.612118
2005-02-28 09:27:43 51°11.866 2°37.178 3.5716 2.78936 29.715417 1.645828
2005-02-28 09:27:47 51°11.877 2°37.19 3.5763 2.786729 29.684539 1.645828
2005-02-28 09:27:53 51°11.893 2°37.209 3.5726 2.786835 29.685774 1.645828
2005-02-28 09:27:57 51°11.905 2°37.223 3.5752 2.786835 29.685774 1.645828
2005-02-28 09:28:03 51°11.92 2°37.24 3.5825 2.787045 29.687429 1.679537
2005-02-28 09:28:07 51°11.931 2°37.252 3.5867 2.788623 29.70514 1.713247
2005-02-28 09:28:13 51°11.946 2°37.27 3.5907 2.789255 29.71255 1.746956
2005-02-28 09:28:17 51°11.959 2°37.283 3.593 2.78957 29.71544 1.746956
2005-02-28 09:28:22 51°11.973 2°37.298 3.5963 2.791149 29.731519 1.780665
2005-02-28 09:28:28 51°11.987 2°37.314 3.5986 2.791149 29.731519 1.780665
2005-02-28 09:28:33 51°12.001 2°37.329 3.6065 2.788834 29.702718 1.814375
2005-02-28 09:28:37 51°12.014 2°37.342 3.6083 2.791149 29.726624 1.848084
2005-02-28 09:28:43 51°12.029 2°37.359 3.6082 2.791254 29.723781 1.848084
2005-02-28 09:28:48 51°12.043 2°37.374 3.6171 2.793358 29.743581 1.848084
2005-02-28 09:28:53 51°12.056 2°37.388 3.616 2.794095 29.748144 1.949212
2005-02-28 09:28:58 51°12.07 2°37.404 3.6133 2.794095 29.748144 1.949212
2005-02-28 09:29:03 51°12.083 2°37.418 3.6081 2.794726 29.752287 1.949212
2005-02-28 09:29:08 51°12.096 2°37.432 3.6032 2.814719 29.982018 1.949212
2005-02-28 09:29:13 51°12.111 2°37.448 3.5902 2.813457 29.963085 2.016631
2005-02-28 09:29:17 51°12.123 2°37.461 3.5818 2.808195 29.89969 2.08405
2005-02-28 09:29:23 51°12.138 2°37.478 3.5799 2.811457 29.933871 2.117759
2005-02-28 09:29:27 51°12.149 2°37.491 3.571 2.811457 29.933871 2.117759
2005-02-28 09:29:32 51°12.163 2°37.506 3.5726 2.810089 29.916178 2.185178
2005-02-28 09:29:38 51°12.178 2°37.523 3.5733 2.811773 29.939217 2.185178
2005-02-28 09:29:43 51°12.191 2°37.539 3.5686 2.809142 29.911624 2.08405
2005-02-28 09:29:47 51°12.202 2°37.55 3.5793 2.808932 29.917356 1.982922
2005-02-28 09:29:53 51°12.218 2°37.569 3.5752 2.808301 29.914046 1.848084
2005-02-28 09:29:57 51°12.229 2°37.581 3.5759 2.808301 29.914046 1.848084
2005-02-28 09:30:03 51°12.245 2°37.6 3.5779 2.806406 29.900011 1.848084
2005-02-28 09:30:07 51°12.256 2°37.611 3.5718 2.804828 29.886397 1.814375
2005-02-28 09:30:13 51°12.272 2°37.629 3.575 2.804618 29.885565 1.780665
2005-02-28 09:30:18 51°12.286 2°37.644 3.572 2.803565 29.874847 1.814375
2005-02-28 09:30:21 51°12.295 2°37.654 3.5779 2.802829 29.863738 1.881794
2005-02-28 09:30:28 51°12.313 2°37.674 3.5773 2.802829 29.863738 1.881794
2005-02-28 09:30:33 51°12.326 2°37.689 3.5759 2.807354 29.916877 1.814375
2005-02-28 09:30:37 51°12.339 2°37.703 3.5755 2.806933 29.911933 1.881794
2005-02-28 09:30:42 51°12.351 2°37.717 3.5791 2.805986 29.901631 1.915503
2005-02-28 09:30:48 51°12.367 2°37.735 3.5722 2.805354 29.895857 1.915503
2005-02-28 09:30:53 51°12.38 2°37.751 3.5655 2.805986 29.901631 1.949212
2005-02-28 09:30:58 51°12.393 2°37.766 3.5639 2.805986 29.901631 1.949212
2005-02-28 09:31:03 51°12.407 2°37.782 3.5589 2.806301 29.902877 1.881794
2005-02-28 09:31:08 51°12.42 2°37.795 3.5573 2.805775 29.897519 1.915503
2005-02-28 09:31:13 51°12.434 2°37.812 3.551 2.804933 29.887632 1.915503
2005-02-28 09:31:17 51°12.446 2°37.825 3.5552 2.805565 29.892586 1.915503
2005-02-28 09:31:23 51°12.461 2°37.842 3.5572 2.803145 29.869085 1.915503
2005-02-28 09:31:27 51°12.472 2°37.854 3.5543 2.803145 29.869085 1.915503
2005-02-28 09:31:33 51°12.488 2°37.872 3.5546 2.803881 29.883475 1.848084
2005-02-28 09:31:38 51°12.501 2°37.888 3.5604 2.802829 29.874395 1.814375
2005-02-28 09:31:43 51°12.515 2°37.903 3.5592 2.802092 29.868203 1.780665
2005-02-28 09:31:47 51°12.526 2°37.916 3.5544 2.80104 29.85994 1.746956
2005-02-28 09:31:53 51°12.542 2°37.934 3.5592 2.799883 29.846342 1.713247
2005-02-28 09:31:58 51°12.555 2°37.95 3.5504 2.799883 29.846342 1.713247
2005-02-28 09:32:03 51°12.569 2°37.964 3.5526 2.799777 29.844287 1.713247
2005-02-28 09:32:07 51°12.579 2°37.976 3.5514 2.799672 29.845509 1.780665
2005-02-28 09:32:13 51°12.596 2°37.995 3.5475 2.79862 29.83069 1.679537
2005-02-28 09:32:18 51°12.61 2°38.01 3.5477 2.799356 29.839342 1.679537
2005-02-28 09:32:21 51°12.619 2°38.02 3.5551 2.79862 29.83069 1.645828
2005-02-28 09:32:27 51°12.634 2°38.037 3.5532 2.79862 29.83069 1.645828
2005-02-28 09:32:33 51°12.65 2°38.055 3.5508 2.799672 29.84387 1.645828
2005-02-28 09:32:37 51°12.662 2°38.069 3.5524 2.79883 29.836438 1.713247
2005-02-28 09:32:42 51°12.675 2°38.083 3.5561 2.800198 29.854969 1.679537
2005-02-28 09:32:48 51°12.689 2°38.1 3.5567 2.799251 29.845481 1.713247
2005-02-28 09:32:52 51°12.703 2°38.114 3.5576 2.799462 29.847134 1.713247
2005-02-28 09:32:58 51°12.717 2°38.131 3.5633 2.799462 29.847134 1.713247
2005-02-28 09:33:01 51°12.727 2°38.142 3.5644 2.799462 29.845495 1.746956
2005-02-28 09:33:08 51°12.745 2°38.161 3.5651 2.798936 29.840133 1.881794
2005-02-28 09:33:13 51°12.759 2°38.175 3.567 2.799777 29.850024 1.949212
2005-02-28 09:33:17 51°12.771 2°38.189 3.5717 2.799777 29.848384 2.117759